<?xml version="1.0" encoding="UTF-8" standalone="no" ?>
<gpx xmlns="http://www.topografix.com/GPX/1/1" xmlns:xsi="http://www.w3.org/2001/XMLSchema-instance" xsi:schemaLocation="http://www.topografix.com/GPX/1/1 http://www.topografix.com/GPX/1/1/gpx.xsd" version="1.1" creator="VisuGPX - https://www.visugpx.com">
  <metadata>
    <name>Le site Troglodytique du Barry </name>
    <desc><![CDATA[Le site Troglodytique du Barry ]]></desc>
  </metadata>
  <trk>
    <name><![CDATA[OR-4201465--Saint-Restitut:Le site Troglodytique du Barry ]]></name>
    <trkseg>
      <trkpt lat="44.31594" lon="4.75967">
        <ele>191</ele>
        <time>2016-11-08T18:42:40Z</time>
      </trkpt>
      <trkpt lat="44.31598" lon="4.75969">
        <ele>192</ele>
        <time>2016-11-08T18:44:40Z</time>
      </trkpt>
      <trkpt lat="44.31604" lon="4.75971">
        <ele>193</ele>
        <time>2016-11-08T18:46:40Z</time>
      </trkpt>
      <trkpt lat="44.3161" lon="4.75978">
        <ele>196</ele>
        <time>2016-11-08T18:48:40Z</time>
      </trkpt>
      <trkpt lat="44.31622" lon="4.75981">
        <ele>198</ele>
        <time>2016-11-08T18:50:40Z</time>
      </trkpt>
      <trkpt lat="44.31635" lon="4.7598">
        <ele>199</ele>
        <time>2016-11-08T18:52:40Z</time>
      </trkpt>
      <trkpt lat="44.31645" lon="4.75979">
        <ele>199</ele>
        <time>2016-11-08T18:54:40Z</time>
      </trkpt>
      <trkpt lat="44.3166" lon="4.75977">
        <ele>200</ele>
        <time>2016-11-08T18:56:40Z</time>
      </trkpt>
      <trkpt lat="44.3167" lon="4.75976">
        <ele>201</ele>
        <time>2016-11-08T18:58:40Z</time>
      </trkpt>
      <trkpt lat="44.31681" lon="4.75971">
        <ele>202</ele>
        <time>2016-11-08T19:00:40Z</time>
      </trkpt>
      <trkpt lat="44.31689" lon="4.75965">
        <ele>202</ele>
        <time>2016-11-08T19:02:40Z</time>
      </trkpt>
      <trkpt lat="44.31699" lon="4.75961">
        <ele>203</ele>
        <time>2016-11-08T19:04:40Z</time>
      </trkpt>
      <trkpt lat="44.31714" lon="4.75956">
        <ele>205</ele>
        <time>2016-11-08T19:06:40Z</time>
      </trkpt>
      <trkpt lat="44.31727" lon="4.75952">
        <ele>207</ele>
        <time>2016-11-08T19:08:40Z</time>
      </trkpt>
      <trkpt lat="44.3174" lon="4.75951">
        <ele>210</ele>
        <time>2016-11-08T19:10:40Z</time>
      </trkpt>
      <trkpt lat="44.31764" lon="4.75943">
        <ele>215</ele>
        <time>2016-11-08T19:12:40Z</time>
      </trkpt>
      <trkpt lat="44.31769" lon="4.75939">
        <ele>216</ele>
        <time>2016-11-08T19:14:40Z</time>
      </trkpt>
      <trkpt lat="44.31767" lon="4.75932">
        <ele>215</ele>
        <time>2016-11-08T19:16:40Z</time>
      </trkpt>
      <trkpt lat="44.31765" lon="4.75929">
        <ele>214</ele>
        <time>2016-11-08T19:18:40Z</time>
      </trkpt>
      <trkpt lat="44.31766" lon="4.75921">
        <ele>213</ele>
        <time>2016-11-08T19:20:40Z</time>
      </trkpt>
      <trkpt lat="44.31764" lon="4.75923">
        <ele>213</ele>
        <time>2016-11-08T19:22:40Z</time>
      </trkpt>
      <trkpt lat="44.31766" lon="4.75919">
        <ele>213</ele>
        <time>2016-11-08T19:24:40Z</time>
      </trkpt>
      <trkpt lat="44.31765" lon="4.75918">
        <ele>212</ele>
        <time>2016-11-08T19:26:40Z</time>
      </trkpt>
      <trkpt lat="44.31762" lon="4.75906">
        <ele>213</ele>
        <time>2016-11-08T19:28:40Z</time>
      </trkpt>
      <trkpt lat="44.31753" lon="4.75883">
        <ele>214</ele>
        <time>2016-11-08T19:30:40Z</time>
      </trkpt>
      <trkpt lat="44.31745" lon="4.75862">
        <ele>215</ele>
        <time>2016-11-08T19:32:40Z</time>
      </trkpt>
      <trkpt lat="44.31746" lon="4.75864">
        <ele>215</ele>
        <time>2016-11-08T19:34:40Z</time>
      </trkpt>
      <trkpt lat="44.31749" lon="4.75858">
        <ele>217</ele>
        <time>2016-11-08T19:36:40Z</time>
      </trkpt>
      <trkpt lat="44.31761" lon="4.75857">
        <ele>222</ele>
        <time>2016-11-08T19:38:40Z</time>
      </trkpt>
      <trkpt lat="44.31761" lon="4.75836">
        <ele>225</ele>
        <time>2016-11-08T19:40:40Z</time>
      </trkpt>
      <trkpt lat="44.31746" lon="4.75845">
        <ele>218</ele>
        <time>2016-11-08T19:42:40Z</time>
      </trkpt>
      <trkpt lat="44.31745" lon="4.75842">
        <ele>219</ele>
        <time>2016-11-08T19:44:40Z</time>
      </trkpt>
      <trkpt lat="44.31745" lon="4.75838">
        <ele>219</ele>
        <time>2016-11-08T19:46:40Z</time>
      </trkpt>
      <trkpt lat="44.3174" lon="4.75835">
        <ele>218</ele>
        <time>2016-11-08T19:48:40Z</time>
      </trkpt>
      <trkpt lat="44.31741" lon="4.75828">
        <ele>219</ele>
        <time>2016-11-08T19:50:40Z</time>
      </trkpt>
      <trkpt lat="44.31745" lon="4.75833">
        <ele>220</ele>
        <time>2016-11-08T19:52:40Z</time>
      </trkpt>
      <trkpt lat="44.31734" lon="4.75836">
        <ele>215</ele>
        <time>2016-11-08T19:54:40Z</time>
      </trkpt>
      <trkpt lat="44.3173" lon="4.75814">
        <ele>217</ele>
        <time>2016-11-08T19:56:40Z</time>
      </trkpt>
      <trkpt lat="44.31734" lon="4.75804">
        <ele>220</ele>
        <time>2016-11-08T19:58:40Z</time>
      </trkpt>
      <trkpt lat="44.31737" lon="4.75801">
        <ele>222</ele>
        <time>2016-11-08T20:00:40Z</time>
      </trkpt>
      <trkpt lat="44.31737" lon="4.75806">
        <ele>221</ele>
        <time>2016-11-08T20:02:40Z</time>
      </trkpt>
      <trkpt lat="44.31736" lon="4.75798">
        <ele>222</ele>
        <time>2016-11-08T20:04:40Z</time>
      </trkpt>
      <trkpt lat="44.31737" lon="4.75798">
        <ele>223</ele>
        <time>2016-11-08T20:06:40Z</time>
      </trkpt>
      <trkpt lat="44.31738" lon="4.75792">
        <ele>224</ele>
        <time>2016-11-08T20:08:40Z</time>
      </trkpt>
      <trkpt lat="44.31733" lon="4.75818">
        <ele>218</ele>
        <time>2016-11-08T20:10:40Z</time>
      </trkpt>
      <trkpt lat="44.31729" lon="4.75819">
        <ele>216</ele>
        <time>2016-11-08T20:12:40Z</time>
      </trkpt>
      <trkpt lat="44.31731" lon="4.7581">
        <ele>218</ele>
        <time>2016-11-08T20:14:40Z</time>
      </trkpt>
      <trkpt lat="44.31725" lon="4.75792">
        <ele>219</ele>
        <time>2016-11-08T20:16:40Z</time>
      </trkpt>
      <trkpt lat="44.31722" lon="4.75773">
        <ele>221</ele>
        <time>2016-11-08T20:18:40Z</time>
      </trkpt>
      <trkpt lat="44.31715" lon="4.75755">
        <ele>222</ele>
        <time>2016-11-08T20:20:40Z</time>
      </trkpt>
      <trkpt lat="44.31707" lon="4.75742">
        <ele>220</ele>
        <time>2016-11-08T20:22:40Z</time>
      </trkpt>
      <trkpt lat="44.31701" lon="4.75735">
        <ele>219</ele>
        <time>2016-11-08T20:24:40Z</time>
      </trkpt>
      <trkpt lat="44.31694" lon="4.75722">
        <ele>219</ele>
        <time>2016-11-08T20:26:40Z</time>
      </trkpt>
      <trkpt lat="44.31694" lon="4.75719">
        <ele>219</ele>
        <time>2016-11-08T20:28:40Z</time>
      </trkpt>
      <trkpt lat="44.31693" lon="4.75713">
        <ele>220</ele>
        <time>2016-11-08T20:30:40Z</time>
      </trkpt>
      <trkpt lat="44.31693" lon="4.75713">
        <ele>220</ele>
        <time>2016-11-08T20:32:40Z</time>
      </trkpt>
      <trkpt lat="44.3169" lon="4.75713">
        <ele>219</ele>
        <time>2016-11-08T20:34:40Z</time>
      </trkpt>
      <trkpt lat="44.3169" lon="4.75709">
        <ele>219</ele>
        <time>2016-11-08T20:36:40Z</time>
      </trkpt>
      <trkpt lat="44.31692" lon="4.75709">
        <ele>220</ele>
        <time>2016-11-08T20:38:40Z</time>
      </trkpt>
      <trkpt lat="44.31687" lon="4.75702">
        <ele>220</ele>
        <time>2016-11-08T20:40:40Z</time>
      </trkpt>
      <trkpt lat="44.3168" lon="4.75693">
        <ele>219</ele>
        <time>2016-11-08T20:42:40Z</time>
      </trkpt>
      <trkpt lat="44.31671" lon="4.75709">
        <ele>214</ele>
        <time>2016-11-08T20:44:40Z</time>
      </trkpt>
      <trkpt lat="44.31665" lon="4.757">
        <ele>214</ele>
        <time>2016-11-08T20:46:40Z</time>
      </trkpt>
      <trkpt lat="44.31664" lon="4.75707">
        <ele>212</ele>
        <time>2016-11-08T20:48:40Z</time>
      </trkpt>
      <trkpt lat="44.31665" lon="4.75701">
        <ele>213</ele>
        <time>2016-11-08T20:50:40Z</time>
      </trkpt>
      <trkpt lat="44.31653" lon="4.75682">
        <ele>213</ele>
        <time>2016-11-08T20:52:40Z</time>
      </trkpt>
      <trkpt lat="44.31647" lon="4.75677">
        <ele>212</ele>
        <time>2016-11-08T20:54:40Z</time>
      </trkpt>
      <trkpt lat="44.31641" lon="4.7567">
        <ele>212</ele>
        <time>2016-11-08T20:56:40Z</time>
      </trkpt>
      <trkpt lat="44.31633" lon="4.75658">
        <ele>210</ele>
        <time>2016-11-08T20:58:40Z</time>
      </trkpt>
      <trkpt lat="44.31632" lon="4.75645">
        <ele>210</ele>
        <time>2016-11-08T21:00:40Z</time>
      </trkpt>
      <trkpt lat="44.31633" lon="4.75634">
        <ele>211</ele>
        <time>2016-11-08T21:02:40Z</time>
      </trkpt>
      <trkpt lat="44.31627" lon="4.75625">
        <ele>209</ele>
        <time>2016-11-08T21:04:40Z</time>
      </trkpt>
      <trkpt lat="44.31623" lon="4.75619">
        <ele>208</ele>
        <time>2016-11-08T21:06:40Z</time>
      </trkpt>
      <trkpt lat="44.31621" lon="4.75618">
        <ele>208</ele>
        <time>2016-11-08T21:08:40Z</time>
      </trkpt>
      <trkpt lat="44.31618" lon="4.75622">
        <ele>207</ele>
        <time>2016-11-08T21:10:40Z</time>
      </trkpt>
      <trkpt lat="44.31623" lon="4.75619">
        <ele>208</ele>
        <time>2016-11-08T21:12:40Z</time>
      </trkpt>
      <trkpt lat="44.31625" lon="4.7561">
        <ele>209</ele>
        <time>2016-11-08T21:14:40Z</time>
      </trkpt>
      <trkpt lat="44.31625" lon="4.75601">
        <ele>209</ele>
        <time>2016-11-08T21:16:40Z</time>
      </trkpt>
      <trkpt lat="44.31628" lon="4.75591">
        <ele>210</ele>
        <time>2016-11-08T21:18:40Z</time>
      </trkpt>
      <trkpt lat="44.31629" lon="4.75584">
        <ele>210</ele>
        <time>2016-11-08T21:20:40Z</time>
      </trkpt>
      <trkpt lat="44.31629" lon="4.75577">
        <ele>209</ele>
        <time>2016-11-08T21:22:40Z</time>
      </trkpt>
      <trkpt lat="44.31628" lon="4.75575">
        <ele>209</ele>
        <time>2016-11-08T21:24:40Z</time>
      </trkpt>
      <trkpt lat="44.31629" lon="4.75574">
        <ele>209</ele>
        <time>2016-11-08T21:26:40Z</time>
      </trkpt>
      <trkpt lat="44.31631" lon="4.75576">
        <ele>209</ele>
        <time>2016-11-08T21:28:40Z</time>
      </trkpt>
      <trkpt lat="44.31631" lon="4.7557">
        <ele>208</ele>
        <time>2016-11-08T21:30:40Z</time>
      </trkpt>
      <trkpt lat="44.31633" lon="4.75564">
        <ele>207</ele>
        <time>2016-11-08T21:32:40Z</time>
      </trkpt>
      <trkpt lat="44.3164" lon="4.75561">
        <ele>208</ele>
        <time>2016-11-08T21:34:40Z</time>
      </trkpt>
      <trkpt lat="44.31647" lon="4.75564">
        <ele>210</ele>
        <time>2016-11-08T21:36:40Z</time>
      </trkpt>
      <trkpt lat="44.31656" lon="4.75566">
        <ele>212</ele>
        <time>2016-11-08T21:38:40Z</time>
      </trkpt>
      <trkpt lat="44.31655" lon="4.75571">
        <ele>213</ele>
        <time>2016-11-08T21:40:40Z</time>
      </trkpt>
      <trkpt lat="44.31653" lon="4.75573">
        <ele>213</ele>
        <time>2016-11-08T21:42:40Z</time>
      </trkpt>
      <trkpt lat="44.31653" lon="4.75572">
        <ele>213</ele>
        <time>2016-11-08T21:44:40Z</time>
      </trkpt>
      <trkpt lat="44.31654" lon="4.75572">
        <ele>213</ele>
        <time>2016-11-08T21:46:40Z</time>
      </trkpt>
      <trkpt lat="44.31652" lon="4.75575">
        <ele>213</ele>
        <time>2016-11-08T21:48:40Z</time>
      </trkpt>
      <trkpt lat="44.31653" lon="4.75574">
        <ele>213</ele>
        <time>2016-11-08T21:50:40Z</time>
      </trkpt>
      <trkpt lat="44.31658" lon="4.7558">
        <ele>215</ele>
        <time>2016-11-08T21:52:40Z</time>
      </trkpt>
      <trkpt lat="44.31661" lon="4.75601">
        <ele>217</ele>
        <time>2016-11-08T21:54:40Z</time>
      </trkpt>
      <trkpt lat="44.31662" lon="4.75613">
        <ele>218</ele>
        <time>2016-11-08T21:56:40Z</time>
      </trkpt>
      <trkpt lat="44.31663" lon="4.75624">
        <ele>218</ele>
        <time>2016-11-08T21:58:40Z</time>
      </trkpt>
      <trkpt lat="44.31666" lon="4.75639">
        <ele>219</ele>
        <time>2016-11-08T22:00:40Z</time>
      </trkpt>
      <trkpt lat="44.31666" lon="4.75647">
        <ele>219</ele>
        <time>2016-11-08T22:02:40Z</time>
      </trkpt>
      <trkpt lat="44.31668" lon="4.75652">
        <ele>220</ele>
        <time>2016-11-08T22:04:40Z</time>
      </trkpt>
      <trkpt lat="44.31671" lon="4.75647">
        <ele>220</ele>
        <time>2016-11-08T22:06:40Z</time>
      </trkpt>
      <trkpt lat="44.31669" lon="4.75637">
        <ele>220</ele>
        <time>2016-11-08T22:08:40Z</time>
      </trkpt>
      <trkpt lat="44.31673" lon="4.75629">
        <ele>220</ele>
        <time>2016-11-08T22:10:40Z</time>
      </trkpt>
      <trkpt lat="44.31674" lon="4.75617">
        <ele>220</ele>
        <time>2016-11-08T22:12:40Z</time>
      </trkpt>
      <trkpt lat="44.31673" lon="4.75603">
        <ele>219</ele>
        <time>2016-11-08T22:14:40Z</time>
      </trkpt>
      <trkpt lat="44.31675" lon="4.75585">
        <ele>219</ele>
        <time>2016-11-08T22:16:40Z</time>
      </trkpt>
      <trkpt lat="44.3167" lon="4.75582">
        <ele>218</ele>
        <time>2016-11-08T22:18:40Z</time>
      </trkpt>
      <trkpt lat="44.3167" lon="4.75572">
        <ele>215</ele>
        <time>2016-11-08T22:20:40Z</time>
      </trkpt>
      <trkpt lat="44.3167" lon="4.75563">
        <ele>213</ele>
        <time>2016-11-08T22:22:40Z</time>
      </trkpt>
      <trkpt lat="44.31671" lon="4.75558">
        <ele>212</ele>
        <time>2016-11-08T22:24:40Z</time>
      </trkpt>
      <trkpt lat="44.31668" lon="4.75554">
        <ele>211</ele>
        <time>2016-11-08T22:26:40Z</time>
      </trkpt>
      <trkpt lat="44.31666" lon="4.75549">
        <ele>209</ele>
        <time>2016-11-08T22:28:40Z</time>
      </trkpt>
      <trkpt lat="44.31667" lon="4.7555">
        <ele>210</ele>
        <time>2016-11-08T22:30:40Z</time>
      </trkpt>
      <trkpt lat="44.31667" lon="4.7555">
        <ele>210</ele>
        <time>2016-11-08T22:32:40Z</time>
      </trkpt>
      <trkpt lat="44.31666" lon="4.75548">
        <ele>209</ele>
        <time>2016-11-08T22:34:40Z</time>
      </trkpt>
      <trkpt lat="44.31669" lon="4.75553">
        <ele>210</ele>
        <time>2016-11-08T22:36:40Z</time>
      </trkpt>
      <trkpt lat="44.31669" lon="4.75562">
        <ele>213</ele>
        <time>2016-11-08T22:38:40Z</time>
      </trkpt>
      <trkpt lat="44.3167" lon="4.75565">
        <ele>214</ele>
        <time>2016-11-08T22:40:40Z</time>
      </trkpt>
      <trkpt lat="44.31674" lon="4.75572">
        <ele>216</ele>
        <time>2016-11-08T22:42:40Z</time>
      </trkpt>
      <trkpt lat="44.31675" lon="4.75585">
        <ele>219</ele>
        <time>2016-11-08T22:44:40Z</time>
      </trkpt>
      <trkpt lat="44.31676" lon="4.75594">
        <ele>219</ele>
        <time>2016-11-08T22:46:40Z</time>
      </trkpt>
      <trkpt lat="44.31673" lon="4.75594">
        <ele>219</ele>
        <time>2016-11-08T22:48:40Z</time>
      </trkpt>
      <trkpt lat="44.31675" lon="4.75604">
        <ele>220</ele>
        <time>2016-11-08T22:50:40Z</time>
      </trkpt>
      <trkpt lat="44.31676" lon="4.75622">
        <ele>220</ele>
        <time>2016-11-08T22:52:40Z</time>
      </trkpt>
      <trkpt lat="44.31676" lon="4.75634">
        <ele>221</ele>
        <time>2016-11-08T22:54:40Z</time>
      </trkpt>
      <trkpt lat="44.31676" lon="4.75635">
        <ele>221</ele>
        <time>2016-11-08T22:56:40Z</time>
      </trkpt>
      <trkpt lat="44.31673" lon="4.75637">
        <ele>220</ele>
        <time>2016-11-08T22:58:40Z</time>
      </trkpt>
      <trkpt lat="44.31673" lon="4.75645">
        <ele>221</ele>
        <time>2016-11-08T23:00:40Z</time>
      </trkpt>
      <trkpt lat="44.31673" lon="4.75649">
        <ele>221</ele>
        <time>2016-11-08T23:02:40Z</time>
      </trkpt>
      <trkpt lat="44.31673" lon="4.75658">
        <ele>221</ele>
        <time>2016-11-08T23:04:40Z</time>
      </trkpt>
      <trkpt lat="44.3168" lon="4.75666">
        <ele>223</ele>
        <time>2016-11-08T23:06:40Z</time>
      </trkpt>
      <trkpt lat="44.31691" lon="4.75673">
        <ele>225</ele>
        <time>2016-11-08T23:08:40Z</time>
      </trkpt>
      <trkpt lat="44.31702" lon="4.75679">
        <ele>227</ele>
        <time>2016-11-08T23:10:40Z</time>
      </trkpt>
      <trkpt lat="44.31708" lon="4.75692">
        <ele>227</ele>
        <time>2016-11-08T23:12:40Z</time>
      </trkpt>
      <trkpt lat="44.31708" lon="4.75692">
        <ele>227</ele>
        <time>2016-11-08T23:14:40Z</time>
      </trkpt>
      <trkpt lat="44.31707" lon="4.75686">
        <ele>227</ele>
        <time>2016-11-08T23:16:40Z</time>
      </trkpt>
      <trkpt lat="44.31706" lon="4.75677">
        <ele>228</ele>
        <time>2016-11-08T23:18:40Z</time>
      </trkpt>
      <trkpt lat="44.31714" lon="4.75678">
        <ele>230</ele>
        <time>2016-11-08T23:20:40Z</time>
      </trkpt>
      <trkpt lat="44.31724" lon="4.75683">
        <ele>232</ele>
        <time>2016-11-08T23:22:40Z</time>
      </trkpt>
      <trkpt lat="44.3173" lon="4.75687">
        <ele>233</ele>
        <time>2016-11-08T23:24:40Z</time>
      </trkpt>
      <trkpt lat="44.31735" lon="4.75696">
        <ele>234</ele>
        <time>2016-11-08T23:26:40Z</time>
      </trkpt>
      <trkpt lat="44.31742" lon="4.75702">
        <ele>236</ele>
        <time>2016-11-08T23:28:40Z</time>
      </trkpt>
      <trkpt lat="44.31758" lon="4.75725">
        <ele>239</ele>
        <time>2016-11-08T23:30:40Z</time>
      </trkpt>
      <trkpt lat="44.31775" lon="4.75754">
        <ele>243</ele>
        <time>2016-11-08T23:32:40Z</time>
      </trkpt>
      <trkpt lat="44.31784" lon="4.75768">
        <ele>244</ele>
        <time>2016-11-08T23:34:40Z</time>
      </trkpt>
      <trkpt lat="44.31801" lon="4.75783">
        <ele>248</ele>
        <time>2016-11-08T23:36:40Z</time>
      </trkpt>
      <trkpt lat="44.31811" lon="4.7579">
        <ele>250</ele>
        <time>2016-11-08T23:38:40Z</time>
      </trkpt>
      <trkpt lat="44.31821" lon="4.75798">
        <ele>252</ele>
        <time>2016-11-08T23:40:40Z</time>
      </trkpt>
      <trkpt lat="44.31831" lon="4.75811">
        <ele>254</ele>
        <time>2016-11-08T23:42:40Z</time>
      </trkpt>
      <trkpt lat="44.31835" lon="4.75818">
        <ele>254</ele>
        <time>2016-11-08T23:44:40Z</time>
      </trkpt>
      <trkpt lat="44.31846" lon="4.75825">
        <ele>254</ele>
        <time>2016-11-08T23:46:40Z</time>
      </trkpt>
      <trkpt lat="44.31862" lon="4.7583">
        <ele>255</ele>
        <time>2016-11-08T23:48:40Z</time>
      </trkpt>
      <trkpt lat="44.31876" lon="4.75832">
        <ele>257</ele>
        <time>2016-11-08T23:50:40Z</time>
      </trkpt>
      <trkpt lat="44.31884" lon="4.75832">
        <ele>258</ele>
        <time>2016-11-08T23:52:40Z</time>
      </trkpt>
      <trkpt lat="44.31887" lon="4.75833">
        <ele>259</ele>
        <time>2016-11-08T23:54:40Z</time>
      </trkpt>
      <trkpt lat="44.31895" lon="4.75828">
        <ele>260</ele>
        <time>2016-11-08T23:56:40Z</time>
      </trkpt>
      <trkpt lat="44.3191" lon="4.75825">
        <ele>262</ele>
        <time>2016-11-08T23:58:40Z</time>
      </trkpt>
      <trkpt lat="44.31941" lon="4.75828">
        <ele>262</ele>
        <time>2016-11-09T00:00:40Z</time>
      </trkpt>
      <trkpt lat="44.31955" lon="4.75827">
        <ele>261</ele>
        <time>2016-11-09T00:02:40Z</time>
      </trkpt>
      <trkpt lat="44.31972" lon="4.75831">
        <ele>261</ele>
        <time>2016-11-09T00:04:40Z</time>
      </trkpt>
      <trkpt lat="44.31991" lon="4.75835">
        <ele>260</ele>
        <time>2016-11-09T00:06:40Z</time>
      </trkpt>
      <trkpt lat="44.32011" lon="4.75838">
        <ele>260</ele>
        <time>2016-11-09T00:08:40Z</time>
      </trkpt>
      <trkpt lat="44.32013" lon="4.75831">
        <ele>260</ele>
        <time>2016-11-09T00:10:40Z</time>
      </trkpt>
      <trkpt lat="44.3201" lon="4.7583">
        <ele>259</ele>
        <time>2016-11-09T00:12:40Z</time>
      </trkpt>
      <trkpt lat="44.32008" lon="4.75834">
        <ele>260</ele>
        <time>2016-11-09T00:14:40Z</time>
      </trkpt>
      <trkpt lat="44.32013" lon="4.75833">
        <ele>260</ele>
        <time>2016-11-09T00:16:40Z</time>
      </trkpt>
      <trkpt lat="44.32028" lon="4.75834">
        <ele>260</ele>
        <time>2016-11-09T00:18:40Z</time>
      </trkpt>
      <trkpt lat="44.32036" lon="4.75834">
        <ele>260</ele>
        <time>2016-11-09T00:20:40Z</time>
      </trkpt>
      <trkpt lat="44.32047" lon="4.75833">
        <ele>260</ele>
        <time>2016-11-09T00:22:40Z</time>
      </trkpt>
      <trkpt lat="44.32055" lon="4.75835">
        <ele>260</ele>
        <time>2016-11-09T00:24:40Z</time>
      </trkpt>
      <trkpt lat="44.32065" lon="4.75838">
        <ele>261</ele>
        <time>2016-11-09T00:26:40Z</time>
      </trkpt>
      <trkpt lat="44.32078" lon="4.75841">
        <ele>261</ele>
        <time>2016-11-09T00:28:40Z</time>
      </trkpt>
      <trkpt lat="44.3209" lon="4.75848">
        <ele>261</ele>
        <time>2016-11-09T00:30:40Z</time>
      </trkpt>
      <trkpt lat="44.32098" lon="4.75855">
        <ele>261</ele>
        <time>2016-11-09T00:32:40Z</time>
      </trkpt>
      <trkpt lat="44.32119" lon="4.75871">
        <ele>261</ele>
        <time>2016-11-09T00:34:40Z</time>
      </trkpt>
      <trkpt lat="44.32144" lon="4.75888">
        <ele>260</ele>
        <time>2016-11-09T00:36:40Z</time>
      </trkpt>
      <trkpt lat="44.32149" lon="4.75893">
        <ele>260</ele>
        <time>2016-11-09T00:38:40Z</time>
      </trkpt>
      <trkpt lat="44.32155" lon="4.75895">
        <ele>260</ele>
        <time>2016-11-09T00:40:40Z</time>
      </trkpt>
      <trkpt lat="44.3216" lon="4.75896">
        <ele>259</ele>
        <time>2016-11-09T00:42:40Z</time>
      </trkpt>
      <trkpt lat="44.32167" lon="4.75901">
        <ele>259</ele>
        <time>2016-11-09T00:44:40Z</time>
      </trkpt>
      <trkpt lat="44.32171" lon="4.75898">
        <ele>258</ele>
        <time>2016-11-09T00:46:40Z</time>
      </trkpt>
      <trkpt lat="44.3217" lon="4.75905">
        <ele>259</ele>
        <time>2016-11-09T00:48:40Z</time>
      </trkpt>
      <trkpt lat="44.32178" lon="4.75913">
        <ele>259</ele>
        <time>2016-11-09T00:50:40Z</time>
      </trkpt>
      <trkpt lat="44.32189" lon="4.75927">
        <ele>259</ele>
        <time>2016-11-09T00:52:40Z</time>
      </trkpt>
      <trkpt lat="44.32204" lon="4.75948">
        <ele>261</ele>
        <time>2016-11-09T00:54:40Z</time>
      </trkpt>
      <trkpt lat="44.32213" lon="4.7596">
        <ele>262</ele>
        <time>2016-11-09T00:56:40Z</time>
      </trkpt>
      <trkpt lat="44.32225" lon="4.75977">
        <ele>263</ele>
        <time>2016-11-09T00:58:40Z</time>
      </trkpt>
      <trkpt lat="44.32237" lon="4.75995">
        <ele>265</ele>
        <time>2016-11-09T01:00:40Z</time>
      </trkpt>
      <trkpt lat="44.32248" lon="4.7601">
        <ele>267</ele>
        <time>2016-11-09T01:02:40Z</time>
      </trkpt>
      <trkpt lat="44.32257" lon="4.7602">
        <ele>269</ele>
        <time>2016-11-09T01:04:40Z</time>
      </trkpt>
      <trkpt lat="44.32277" lon="4.76034">
        <ele>271</ele>
        <time>2016-11-09T01:06:40Z</time>
      </trkpt>
      <trkpt lat="44.3229" lon="4.76038">
        <ele>271</ele>
        <time>2016-11-09T01:08:40Z</time>
      </trkpt>
      <trkpt lat="44.32301" lon="4.76043">
        <ele>271</ele>
        <time>2016-11-09T01:10:40Z</time>
      </trkpt>
      <trkpt lat="44.32297" lon="4.76048">
        <ele>273</ele>
        <time>2016-11-09T01:12:40Z</time>
      </trkpt>
      <trkpt lat="44.32295" lon="4.76048">
        <ele>274</ele>
        <time>2016-11-09T01:14:40Z</time>
      </trkpt>
      <trkpt lat="44.32301" lon="4.76048">
        <ele>273</ele>
        <time>2016-11-09T01:16:40Z</time>
      </trkpt>
      <trkpt lat="44.32305" lon="4.76045">
        <ele>272</ele>
        <time>2016-11-09T01:18:40Z</time>
      </trkpt>
      <trkpt lat="44.32315" lon="4.76046">
        <ele>271</ele>
        <time>2016-11-09T01:20:40Z</time>
      </trkpt>
      <trkpt lat="44.32335" lon="4.76054">
        <ele>272</ele>
        <time>2016-11-09T01:22:40Z</time>
      </trkpt>
      <trkpt lat="44.32335" lon="4.76058">
        <ele>273</ele>
        <time>2016-11-09T01:24:40Z</time>
      </trkpt>
      <trkpt lat="44.32329" lon="4.76058">
        <ele>274</ele>
        <time>2016-11-09T01:26:40Z</time>
      </trkpt>
      <trkpt lat="44.32332" lon="4.76057">
        <ele>273</ele>
        <time>2016-11-09T01:28:40Z</time>
      </trkpt>
      <trkpt lat="44.32333" lon="4.76055">
        <ele>272</ele>
        <time>2016-11-09T01:30:40Z</time>
      </trkpt>
      <trkpt lat="44.32345" lon="4.76056">
        <ele>273</ele>
        <time>2016-11-09T01:32:40Z</time>
      </trkpt>
      <trkpt lat="44.32355" lon="4.76055">
        <ele>272</ele>
        <time>2016-11-09T01:34:40Z</time>
      </trkpt>
      <trkpt lat="44.32365" lon="4.76057">
        <ele>273</ele>
        <time>2016-11-09T01:36:40Z</time>
      </trkpt>
      <trkpt lat="44.32368" lon="4.76055">
        <ele>272</ele>
        <time>2016-11-09T01:38:40Z</time>
      </trkpt>
      <trkpt lat="44.32378" lon="4.76054">
        <ele>272</ele>
        <time>2016-11-09T01:40:40Z</time>
      </trkpt>
      <trkpt lat="44.32389" lon="4.7606">
        <ele>274</ele>
        <time>2016-11-09T01:42:40Z</time>
      </trkpt>
      <trkpt lat="44.32407" lon="4.76056">
        <ele>273</ele>
        <time>2016-11-09T01:44:40Z</time>
      </trkpt>
      <trkpt lat="44.32426" lon="4.76053">
        <ele>272</ele>
        <time>2016-11-09T01:46:40Z</time>
      </trkpt>
      <trkpt lat="44.32444" lon="4.76048">
        <ele>271</ele>
        <time>2016-11-09T01:48:40Z</time>
      </trkpt>
      <trkpt lat="44.32462" lon="4.76043">
        <ele>270</ele>
        <time>2016-11-09T01:50:40Z</time>
      </trkpt>
      <trkpt lat="44.32484" lon="4.76042">
        <ele>270</ele>
        <time>2016-11-09T01:52:40Z</time>
      </trkpt>
      <trkpt lat="44.32501" lon="4.76039">
        <ele>269</ele>
        <time>2016-11-09T01:54:40Z</time>
      </trkpt>
      <trkpt lat="44.32513" lon="4.76042">
        <ele>267</ele>
        <time>2016-11-09T01:56:40Z</time>
      </trkpt>
      <trkpt lat="44.32522" lon="4.76047">
        <ele>267</ele>
        <time>2016-11-09T01:58:40Z</time>
      </trkpt>
      <trkpt lat="44.32533" lon="4.76056">
        <ele>266</ele>
        <time>2016-11-09T02:00:40Z</time>
      </trkpt>
      <trkpt lat="44.32542" lon="4.76062">
        <ele>265</ele>
        <time>2016-11-09T02:02:40Z</time>
      </trkpt>
      <trkpt lat="44.32549" lon="4.76068">
        <ele>264</ele>
        <time>2016-11-09T02:04:40Z</time>
      </trkpt>
      <trkpt lat="44.3255" lon="4.76083">
        <ele>266</ele>
        <time>2016-11-09T02:06:40Z</time>
      </trkpt>
      <trkpt lat="44.32548" lon="4.76099">
        <ele>268</ele>
        <time>2016-11-09T02:08:40Z</time>
      </trkpt>
      <trkpt lat="44.32552" lon="4.76108">
        <ele>268</ele>
        <time>2016-11-09T02:10:40Z</time>
      </trkpt>
      <trkpt lat="44.32555" lon="4.76111">
        <ele>268</ele>
        <time>2016-11-09T02:12:40Z</time>
      </trkpt>
      <trkpt lat="44.32556" lon="4.76109">
        <ele>267</ele>
        <time>2016-11-09T02:14:40Z</time>
      </trkpt>
      <trkpt lat="44.32553" lon="4.76105">
        <ele>267</ele>
        <time>2016-11-09T02:16:40Z</time>
      </trkpt>
      <trkpt lat="44.32553" lon="4.76109">
        <ele>268</ele>
        <time>2016-11-09T02:18:40Z</time>
      </trkpt>
      <trkpt lat="44.32554" lon="4.76105">
        <ele>267</ele>
        <time>2016-11-09T02:20:40Z</time>
      </trkpt>
      <trkpt lat="44.32553" lon="4.76108">
        <ele>268</ele>
        <time>2016-11-09T02:22:40Z</time>
      </trkpt>
      <trkpt lat="44.32549" lon="4.76102">
        <ele>268</ele>
        <time>2016-11-09T02:24:40Z</time>
      </trkpt>
      <trkpt lat="44.32549" lon="4.76102">
        <ele>268</ele>
        <time>2016-11-09T02:26:40Z</time>
      </trkpt>
      <trkpt lat="44.3255" lon="4.76101">
        <ele>268</ele>
        <time>2016-11-09T02:28:40Z</time>
      </trkpt>
      <trkpt lat="44.32551" lon="4.76101">
        <ele>267</ele>
        <time>2016-11-09T02:30:40Z</time>
      </trkpt>
      <trkpt lat="44.32551" lon="4.76102">
        <ele>268</ele>
        <time>2016-11-09T02:32:40Z</time>
      </trkpt>
      <trkpt lat="44.32551" lon="4.76102">
        <ele>268</ele>
        <time>2016-11-09T02:34:40Z</time>
      </trkpt>
      <trkpt lat="44.32551" lon="4.76103">
        <ele>268</ele>
        <time>2016-11-09T02:36:40Z</time>
      </trkpt>
      <trkpt lat="44.32551" lon="4.76103">
        <ele>268</ele>
        <time>2016-11-09T02:38:40Z</time>
      </trkpt>
      <trkpt lat="44.32551" lon="4.76104">
        <ele>268</ele>
        <time>2016-11-09T02:40:40Z</time>
      </trkpt>
      <trkpt lat="44.32552" lon="4.76105">
        <ele>268</ele>
        <time>2016-11-09T02:42:40Z</time>
      </trkpt>
      <trkpt lat="44.32552" lon="4.76105">
        <ele>268</ele>
        <time>2016-11-09T02:44:40Z</time>
      </trkpt>
      <trkpt lat="44.32552" lon="4.76105">
        <ele>268</ele>
        <time>2016-11-09T02:46:40Z</time>
      </trkpt>
      <trkpt lat="44.32552" lon="4.76106">
        <ele>268</ele>
        <time>2016-11-09T02:48:40Z</time>
      </trkpt>
      <trkpt lat="44.32553" lon="4.76106">
        <ele>268</ele>
        <time>2016-11-09T02:50:40Z</time>
      </trkpt>
      <trkpt lat="44.32553" lon="4.76106">
        <ele>268</ele>
        <time>2016-11-09T02:52:40Z</time>
      </trkpt>
      <trkpt lat="44.32554" lon="4.76106">
        <ele>267</ele>
        <time>2016-11-09T02:54:40Z</time>
      </trkpt>
      <trkpt lat="44.32554" lon="4.76106">
        <ele>267</ele>
        <time>2016-11-09T02:56:40Z</time>
      </trkpt>
      <trkpt lat="44.32554" lon="4.76106">
        <ele>267</ele>
        <time>2016-11-09T02:58:40Z</time>
      </trkpt>
      <trkpt lat="44.32553" lon="4.76105">
        <ele>267</ele>
        <time>2016-11-09T03:00:40Z</time>
      </trkpt>
      <trkpt lat="44.32554" lon="4.76106">
        <ele>267</ele>
        <time>2016-11-09T03:02:40Z</time>
      </trkpt>
      <trkpt lat="44.32554" lon="4.76106">
        <ele>267</ele>
        <time>2016-11-09T03:04:40Z</time>
      </trkpt>
      <trkpt lat="44.32553" lon="4.76107">
        <ele>268</ele>
        <time>2016-11-09T03:06:40Z</time>
      </trkpt>
      <trkpt lat="44.32554" lon="4.76107">
        <ele>267</ele>
        <time>2016-11-09T03:08:40Z</time>
      </trkpt>
      <trkpt lat="44.32552" lon="4.76107">
        <ele>268</ele>
        <time>2016-11-09T03:10:40Z</time>
      </trkpt>
      <trkpt lat="44.32551" lon="4.76109">
        <ele>268</ele>
        <time>2016-11-09T03:12:40Z</time>
      </trkpt>
      <trkpt lat="44.32547" lon="4.76109">
        <ele>269</ele>
        <time>2016-11-09T03:14:40Z</time>
      </trkpt>
      <trkpt lat="44.32543" lon="4.76111">
        <ele>270</ele>
        <time>2016-11-09T03:16:40Z</time>
      </trkpt>
      <trkpt lat="44.32542" lon="4.76112">
        <ele>270</ele>
        <time>2016-11-09T03:18:40Z</time>
      </trkpt>
      <trkpt lat="44.3252" lon="4.76151">
        <ele>277</ele>
        <time>2016-11-09T03:20:40Z</time>
      </trkpt>
      <trkpt lat="44.32516" lon="4.76169">
        <ele>279</ele>
        <time>2016-11-09T03:22:40Z</time>
      </trkpt>
      <trkpt lat="44.32518" lon="4.76181">
        <ele>279</ele>
        <time>2016-11-09T03:24:40Z</time>
      </trkpt>
      <trkpt lat="44.32521" lon="4.76187">
        <ele>279</ele>
        <time>2016-11-09T03:26:40Z</time>
      </trkpt>
      <trkpt lat="44.32516" lon="4.76192">
        <ele>280</ele>
        <time>2016-11-09T03:28:40Z</time>
      </trkpt>
      <trkpt lat="44.3251" lon="4.762">
        <ele>281</ele>
        <time>2016-11-09T03:30:40Z</time>
      </trkpt>
      <trkpt lat="44.32506" lon="4.762">
        <ele>282</ele>
        <time>2016-11-09T03:32:40Z</time>
      </trkpt>
      <trkpt lat="44.32509" lon="4.7619">
        <ele>281</ele>
        <time>2016-11-09T03:34:40Z</time>
      </trkpt>
      <trkpt lat="44.32509" lon="4.76191">
        <ele>281</ele>
        <time>2016-11-09T03:36:40Z</time>
      </trkpt>
      <trkpt lat="44.32503" lon="4.76207">
        <ele>283</ele>
        <time>2016-11-09T03:38:40Z</time>
      </trkpt>
      <trkpt lat="44.32502" lon="4.76207">
        <ele>283</ele>
        <time>2016-11-09T03:40:40Z</time>
      </trkpt>
      <trkpt lat="44.32497" lon="4.76209">
        <ele>284</ele>
        <time>2016-11-09T03:42:40Z</time>
      </trkpt>
      <trkpt lat="44.32498" lon="4.76212">
        <ele>284</ele>
        <time>2016-11-09T03:44:40Z</time>
      </trkpt>
      <trkpt lat="44.32485" lon="4.76254">
        <ele>288</ele>
        <time>2016-11-09T03:46:40Z</time>
      </trkpt>
      <trkpt lat="44.325" lon="4.76229">
        <ele>285</ele>
        <time>2016-11-09T03:48:40Z</time>
      </trkpt>
      <trkpt lat="44.325" lon="4.76242">
        <ele>286</ele>
        <time>2016-11-09T03:50:40Z</time>
      </trkpt>
      <trkpt lat="44.32506" lon="4.76227">
        <ele>284</ele>
        <time>2016-11-09T03:52:40Z</time>
      </trkpt>
      <trkpt lat="44.32501" lon="4.76227">
        <ele>284</ele>
        <time>2016-11-09T03:54:40Z</time>
      </trkpt>
      <trkpt lat="44.32498" lon="4.76229">
        <ele>285</ele>
        <time>2016-11-09T03:56:40Z</time>
      </trkpt>
      <trkpt lat="44.32482" lon="4.76252">
        <ele>288</ele>
        <time>2016-11-09T03:58:40Z</time>
      </trkpt>
      <trkpt lat="44.32489" lon="4.76235">
        <ele>286</ele>
        <time>2016-11-09T04:00:40Z</time>
      </trkpt>
      <trkpt lat="44.32513" lon="4.762">
        <ele>281</ele>
        <time>2016-11-09T04:02:40Z</time>
      </trkpt>
      <trkpt lat="44.32526" lon="4.76191">
        <ele>278</ele>
        <time>2016-11-09T04:04:40Z</time>
      </trkpt>
      <trkpt lat="44.32556" lon="4.76193">
        <ele>274</ele>
        <time>2016-11-09T04:06:40Z</time>
      </trkpt>
      <trkpt lat="44.32567" lon="4.76197">
        <ele>273</ele>
        <time>2016-11-09T04:08:40Z</time>
      </trkpt>
      <trkpt lat="44.32569" lon="4.76201">
        <ele>273</ele>
        <time>2016-11-09T04:10:40Z</time>
      </trkpt>
      <trkpt lat="44.32571" lon="4.76209">
        <ele>273</ele>
        <time>2016-11-09T04:12:40Z</time>
      </trkpt>
      <trkpt lat="44.32575" lon="4.76223">
        <ele>273</ele>
        <time>2016-11-09T04:14:40Z</time>
      </trkpt>
      <trkpt lat="44.32578" lon="4.76232">
        <ele>273</ele>
        <time>2016-11-09T04:16:40Z</time>
      </trkpt>
      <trkpt lat="44.32585" lon="4.76256">
        <ele>274</ele>
        <time>2016-11-09T04:18:40Z</time>
      </trkpt>
      <trkpt lat="44.32587" lon="4.76261">
        <ele>274</ele>
        <time>2016-11-09T04:20:40Z</time>
      </trkpt>
      <trkpt lat="44.32594" lon="4.76279">
        <ele>274</ele>
        <time>2016-11-09T04:22:40Z</time>
      </trkpt>
      <trkpt lat="44.326" lon="4.76297">
        <ele>275</ele>
        <time>2016-11-09T04:24:40Z</time>
      </trkpt>
      <trkpt lat="44.32611" lon="4.76321">
        <ele>277</ele>
        <time>2016-11-09T04:26:40Z</time>
      </trkpt>
      <trkpt lat="44.32618" lon="4.76337">
        <ele>278</ele>
        <time>2016-11-09T04:28:40Z</time>
      </trkpt>
      <trkpt lat="44.32621" lon="4.76333">
        <ele>278</ele>
        <time>2016-11-09T04:30:40Z</time>
      </trkpt>
      <trkpt lat="44.32626" lon="4.76325">
        <ele>276</ele>
        <time>2016-11-09T04:32:40Z</time>
      </trkpt>
      <trkpt lat="44.32624" lon="4.7632">
        <ele>276</ele>
        <time>2016-11-09T04:34:40Z</time>
      </trkpt>
      <trkpt lat="44.32626" lon="4.76316">
        <ele>275</ele>
        <time>2016-11-09T04:36:40Z</time>
      </trkpt>
      <trkpt lat="44.32625" lon="4.76321">
        <ele>276</ele>
        <time>2016-11-09T04:38:40Z</time>
      </trkpt>
      <trkpt lat="44.32627" lon="4.76324">
        <ele>276</ele>
        <time>2016-11-09T04:40:40Z</time>
      </trkpt>
      <trkpt lat="44.32629" lon="4.76325">
        <ele>276</ele>
        <time>2016-11-09T04:42:40Z</time>
      </trkpt>
      <trkpt lat="44.32628" lon="4.76339">
        <ele>278</ele>
        <time>2016-11-09T04:44:40Z</time>
      </trkpt>
      <trkpt lat="44.32628" lon="4.76344">
        <ele>278</ele>
        <time>2016-11-09T04:46:40Z</time>
      </trkpt>
      <trkpt lat="44.32638" lon="4.76362">
        <ele>279</ele>
        <time>2016-11-09T04:48:40Z</time>
      </trkpt>
      <trkpt lat="44.32638" lon="4.76365">
        <ele>279</ele>
        <time>2016-11-09T04:50:40Z</time>
      </trkpt>
      <trkpt lat="44.32639" lon="4.76368">
        <ele>279</ele>
        <time>2016-11-09T04:52:40Z</time>
      </trkpt>
      <trkpt lat="44.3264" lon="4.76373">
        <ele>280</ele>
        <time>2016-11-09T04:54:40Z</time>
      </trkpt>
      <trkpt lat="44.3264" lon="4.76372">
        <ele>280</ele>
        <time>2016-11-09T04:56:40Z</time>
      </trkpt>
      <trkpt lat="44.3264" lon="4.76372">
        <ele>280</ele>
        <time>2016-11-09T04:58:40Z</time>
      </trkpt>
      <trkpt lat="44.3264" lon="4.76371">
        <ele>280</ele>
        <time>2016-11-09T05:00:40Z</time>
      </trkpt>
      <trkpt lat="44.32647" lon="4.76378">
        <ele>280</ele>
        <time>2016-11-09T05:02:40Z</time>
      </trkpt>
      <trkpt lat="44.32653" lon="4.76389">
        <ele>281</ele>
        <time>2016-11-09T05:04:40Z</time>
      </trkpt>
      <trkpt lat="44.32656" lon="4.76395">
        <ele>281</ele>
        <time>2016-11-09T05:06:40Z</time>
      </trkpt>
      <trkpt lat="44.32665" lon="4.76412">
        <ele>283</ele>
        <time>2016-11-09T05:08:40Z</time>
      </trkpt>
      <trkpt lat="44.32673" lon="4.76423">
        <ele>283</ele>
        <time>2016-11-09T05:10:40Z</time>
      </trkpt>
      <trkpt lat="44.32675" lon="4.7643">
        <ele>282</ele>
        <time>2016-11-09T05:12:40Z</time>
      </trkpt>
      <trkpt lat="44.32684" lon="4.76455">
        <ele>282</ele>
        <time>2016-11-09T05:14:40Z</time>
      </trkpt>
      <trkpt lat="44.32689" lon="4.76479">
        <ele>281</ele>
        <time>2016-11-09T05:16:40Z</time>
      </trkpt>
      <trkpt lat="44.32691" lon="4.76502">
        <ele>280</ele>
        <time>2016-11-09T05:18:40Z</time>
      </trkpt>
      <trkpt lat="44.32691" lon="4.76506">
        <ele>280</ele>
        <time>2016-11-09T05:20:40Z</time>
      </trkpt>
      <trkpt lat="44.32696" lon="4.76544">
        <ele>279</ele>
        <time>2016-11-09T05:22:40Z</time>
      </trkpt>
      <trkpt lat="44.32701" lon="4.76567">
        <ele>279</ele>
        <time>2016-11-09T05:24:40Z</time>
      </trkpt>
      <trkpt lat="44.32703" lon="4.76578">
        <ele>278</ele>
        <time>2016-11-09T05:26:40Z</time>
      </trkpt>
      <trkpt lat="44.32701" lon="4.76582">
        <ele>278</ele>
        <time>2016-11-09T05:28:40Z</time>
      </trkpt>
      <trkpt lat="44.32702" lon="4.76586">
        <ele>278</ele>
        <time>2016-11-09T05:30:40Z</time>
      </trkpt>
      <trkpt lat="44.32702" lon="4.76587">
        <ele>278</ele>
        <time>2016-11-09T05:32:40Z</time>
      </trkpt>
      <trkpt lat="44.32702" lon="4.76585">
        <ele>278</ele>
        <time>2016-11-09T05:34:40Z</time>
      </trkpt>
      <trkpt lat="44.32692" lon="4.76579">
        <ele>278</ele>
        <time>2016-11-09T05:36:40Z</time>
      </trkpt>
      <trkpt lat="44.32689" lon="4.76579">
        <ele>279</ele>
        <time>2016-11-09T05:38:40Z</time>
      </trkpt>
      <trkpt lat="44.32684" lon="4.76575">
        <ele>279</ele>
        <time>2016-11-09T05:40:40Z</time>
      </trkpt>
      <trkpt lat="44.32671" lon="4.7657">
        <ele>279</ele>
        <time>2016-11-09T05:42:40Z</time>
      </trkpt>
      <trkpt lat="44.32658" lon="4.76565">
        <ele>280</ele>
        <time>2016-11-09T05:44:40Z</time>
      </trkpt>
      <trkpt lat="44.32642" lon="4.76561">
        <ele>280</ele>
        <time>2016-11-09T05:46:40Z</time>
      </trkpt>
      <trkpt lat="44.32629" lon="4.76559">
        <ele>281</ele>
        <time>2016-11-09T05:48:40Z</time>
      </trkpt>
      <trkpt lat="44.32613" lon="4.76554">
        <ele>281</ele>
        <time>2016-11-09T05:50:40Z</time>
      </trkpt>
      <trkpt lat="44.32598" lon="4.76551">
        <ele>282</ele>
        <time>2016-11-09T05:52:40Z</time>
      </trkpt>
      <trkpt lat="44.32585" lon="4.76549">
        <ele>282</ele>
        <time>2016-11-09T05:54:40Z</time>
      </trkpt>
      <trkpt lat="44.32579" lon="4.76549">
        <ele>282</ele>
        <time>2016-11-09T05:56:40Z</time>
      </trkpt>
      <trkpt lat="44.32573" lon="4.7655">
        <ele>282</ele>
        <time>2016-11-09T05:58:40Z</time>
      </trkpt>
      <trkpt lat="44.32557" lon="4.76548">
        <ele>282</ele>
        <time>2016-11-09T06:00:40Z</time>
      </trkpt>
      <trkpt lat="44.32543" lon="4.76546">
        <ele>282</ele>
        <time>2016-11-09T06:02:40Z</time>
      </trkpt>
      <trkpt lat="44.32532" lon="4.76547">
        <ele>281</ele>
        <time>2016-11-09T06:04:40Z</time>
      </trkpt>
      <trkpt lat="44.32515" lon="4.76543">
        <ele>281</ele>
        <time>2016-11-09T06:06:40Z</time>
      </trkpt>
      <trkpt lat="44.32501" lon="4.76542">
        <ele>281</ele>
        <time>2016-11-09T06:08:40Z</time>
      </trkpt>
      <trkpt lat="44.32498" lon="4.76543">
        <ele>281</ele>
        <time>2016-11-09T06:10:40Z</time>
      </trkpt>
      <trkpt lat="44.32484" lon="4.76542">
        <ele>282</ele>
        <time>2016-11-09T06:12:40Z</time>
      </trkpt>
      <trkpt lat="44.32454" lon="4.76552">
        <ele>282</ele>
        <time>2016-11-09T06:14:40Z</time>
      </trkpt>
      <trkpt lat="44.3244" lon="4.76555">
        <ele>283</ele>
        <time>2016-11-09T06:16:40Z</time>
      </trkpt>
      <trkpt lat="44.32425" lon="4.76557">
        <ele>283</ele>
        <time>2016-11-09T06:18:40Z</time>
      </trkpt>
      <trkpt lat="44.32411" lon="4.76558">
        <ele>283</ele>
        <time>2016-11-09T06:20:40Z</time>
      </trkpt>
      <trkpt lat="44.32398" lon="4.76557">
        <ele>282</ele>
        <time>2016-11-09T06:22:40Z</time>
      </trkpt>
      <trkpt lat="44.32385" lon="4.76555">
        <ele>282</ele>
        <time>2016-11-09T06:24:40Z</time>
      </trkpt>
      <trkpt lat="44.32371" lon="4.7655">
        <ele>282</ele>
        <time>2016-11-09T06:26:40Z</time>
      </trkpt>
      <trkpt lat="44.32369" lon="4.7655">
        <ele>281</ele>
        <time>2016-11-09T06:28:40Z</time>
      </trkpt>
      <trkpt lat="44.32367" lon="4.76549">
        <ele>281</ele>
        <time>2016-11-09T06:30:40Z</time>
      </trkpt>
      <trkpt lat="44.32354" lon="4.76552">
        <ele>281</ele>
        <time>2016-11-09T06:32:40Z</time>
      </trkpt>
      <trkpt lat="44.32345" lon="4.76564">
        <ele>279</ele>
        <time>2016-11-09T06:34:40Z</time>
      </trkpt>
      <trkpt lat="44.32344" lon="4.76584">
        <ele>278</ele>
        <time>2016-11-09T06:36:40Z</time>
      </trkpt>
      <trkpt lat="44.32336" lon="4.76627">
        <ele>277</ele>
        <time>2016-11-09T06:38:40Z</time>
      </trkpt>
      <trkpt lat="44.32337" lon="4.76635">
        <ele>276</ele>
        <time>2016-11-09T06:40:40Z</time>
      </trkpt>
      <trkpt lat="44.32341" lon="4.76651">
        <ele>276</ele>
        <time>2016-11-09T06:42:40Z</time>
      </trkpt>
      <trkpt lat="44.32342" lon="4.76653">
        <ele>276</ele>
        <time>2016-11-09T06:44:40Z</time>
      </trkpt>
      <trkpt lat="44.32347" lon="4.76665">
        <ele>276</ele>
        <time>2016-11-09T06:46:40Z</time>
      </trkpt>
      <trkpt lat="44.32352" lon="4.76675">
        <ele>276</ele>
        <time>2016-11-09T06:48:40Z</time>
      </trkpt>
      <trkpt lat="44.32359" lon="4.7669">
        <ele>276</ele>
        <time>2016-11-09T06:50:40Z</time>
      </trkpt>
      <trkpt lat="44.32364" lon="4.76706">
        <ele>276</ele>
        <time>2016-11-09T06:52:40Z</time>
      </trkpt>
      <trkpt lat="44.32371" lon="4.7672">
        <ele>275</ele>
        <time>2016-11-09T06:54:40Z</time>
      </trkpt>
      <trkpt lat="44.32378" lon="4.76734">
        <ele>275</ele>
        <time>2016-11-09T06:56:40Z</time>
      </trkpt>
      <trkpt lat="44.32377" lon="4.76744">
        <ele>275</ele>
        <time>2016-11-09T06:58:40Z</time>
      </trkpt>
      <trkpt lat="44.32373" lon="4.76748">
        <ele>275</ele>
        <time>2016-11-09T07:00:40Z</time>
      </trkpt>
      <trkpt lat="44.3235" lon="4.76753">
        <ele>274</ele>
        <time>2016-11-09T07:02:40Z</time>
      </trkpt>
      <trkpt lat="44.32335" lon="4.76755">
        <ele>274</ele>
        <time>2016-11-09T07:04:40Z</time>
      </trkpt>
      <trkpt lat="44.32322" lon="4.76756">
        <ele>274</ele>
        <time>2016-11-09T07:06:40Z</time>
      </trkpt>
      <trkpt lat="44.32287" lon="4.76769">
        <ele>273</ele>
        <time>2016-11-09T07:08:40Z</time>
      </trkpt>
      <trkpt lat="44.3228" lon="4.76777">
        <ele>273</ele>
        <time>2016-11-09T07:10:40Z</time>
      </trkpt>
      <trkpt lat="44.32277" lon="4.7678">
        <ele>273</ele>
        <time>2016-11-09T07:12:40Z</time>
      </trkpt>
      <trkpt lat="44.32263" lon="4.76785">
        <ele>272</ele>
        <time>2016-11-09T07:14:40Z</time>
      </trkpt>
      <trkpt lat="44.32246" lon="4.76794">
        <ele>272</ele>
        <time>2016-11-09T07:16:40Z</time>
      </trkpt>
      <trkpt lat="44.32242" lon="4.76798">
        <ele>272</ele>
        <time>2016-11-09T07:18:40Z</time>
      </trkpt>
      <trkpt lat="44.32242" lon="4.76798">
        <ele>272</ele>
        <time>2016-11-09T07:20:40Z</time>
      </trkpt>
      <trkpt lat="44.32244" lon="4.76798">
        <ele>272</ele>
        <time>2016-11-09T07:22:40Z</time>
      </trkpt>
      <trkpt lat="44.32242" lon="4.768">
        <ele>272</ele>
        <time>2016-11-09T07:24:40Z</time>
      </trkpt>
      <trkpt lat="44.32241" lon="4.76799">
        <ele>272</ele>
        <time>2016-11-09T07:26:40Z</time>
      </trkpt>
      <trkpt lat="44.32243" lon="4.76799">
        <ele>272</ele>
        <time>2016-11-09T07:28:40Z</time>
      </trkpt>
      <trkpt lat="44.32244" lon="4.768">
        <ele>272</ele>
        <time>2016-11-09T07:30:40Z</time>
      </trkpt>
      <trkpt lat="44.32235" lon="4.76802">
        <ele>271</ele>
        <time>2016-11-09T07:32:40Z</time>
      </trkpt>
      <trkpt lat="44.32222" lon="4.76801">
        <ele>271</ele>
        <time>2016-11-09T07:34:40Z</time>
      </trkpt>
      <trkpt lat="44.32209" lon="4.76812">
        <ele>270</ele>
        <time>2016-11-09T07:36:40Z</time>
      </trkpt>
      <trkpt lat="44.32199" lon="4.76817">
        <ele>270</ele>
        <time>2016-11-09T07:38:40Z</time>
      </trkpt>
      <trkpt lat="44.32187" lon="4.76823">
        <ele>269</ele>
        <time>2016-11-09T07:40:40Z</time>
      </trkpt>
      <trkpt lat="44.32176" lon="4.76828">
        <ele>269</ele>
        <time>2016-11-09T07:42:40Z</time>
      </trkpt>
      <trkpt lat="44.32166" lon="4.7683">
        <ele>268</ele>
        <time>2016-11-09T07:44:40Z</time>
      </trkpt>
      <trkpt lat="44.32153" lon="4.76836">
        <ele>266</ele>
        <time>2016-11-09T07:46:40Z</time>
      </trkpt>
      <trkpt lat="44.32144" lon="4.76843">
        <ele>264</ele>
        <time>2016-11-09T07:48:40Z</time>
      </trkpt>
      <trkpt lat="44.32143" lon="4.76855">
        <ele>264</ele>
        <time>2016-11-09T07:50:40Z</time>
      </trkpt>
      <trkpt lat="44.32144" lon="4.76859">
        <ele>264</ele>
        <time>2016-11-09T07:52:40Z</time>
      </trkpt>
      <trkpt lat="44.32153" lon="4.76888">
        <ele>265</ele>
        <time>2016-11-09T07:54:40Z</time>
      </trkpt>
      <trkpt lat="44.32156" lon="4.76905">
        <ele>265</ele>
        <time>2016-11-09T07:56:40Z</time>
      </trkpt>
      <trkpt lat="44.32158" lon="4.76918">
        <ele>265</ele>
        <time>2016-11-09T07:58:40Z</time>
      </trkpt>
      <trkpt lat="44.32157" lon="4.76934">
        <ele>267</ele>
        <time>2016-11-09T08:00:40Z</time>
      </trkpt>
      <trkpt lat="44.32153" lon="4.7695">
        <ele>268</ele>
        <time>2016-11-09T08:02:40Z</time>
      </trkpt>
      <trkpt lat="44.32151" lon="4.76953">
        <ele>268</ele>
        <time>2016-11-09T08:04:40Z</time>
      </trkpt>
      <trkpt lat="44.32151" lon="4.76952">
        <ele>268</ele>
        <time>2016-11-09T08:06:40Z</time>
      </trkpt>
      <trkpt lat="44.32153" lon="4.76954">
        <ele>268</ele>
        <time>2016-11-09T08:08:40Z</time>
      </trkpt>
      <trkpt lat="44.32148" lon="4.76963">
        <ele>268</ele>
        <time>2016-11-09T08:10:40Z</time>
      </trkpt>
      <trkpt lat="44.32141" lon="4.77003">
        <ele>272</ele>
        <time>2016-11-09T08:12:40Z</time>
      </trkpt>
      <trkpt lat="44.32138" lon="4.77017">
        <ele>272</ele>
        <time>2016-11-09T08:14:40Z</time>
      </trkpt>
      <trkpt lat="44.32135" lon="4.77036">
        <ele>273</ele>
        <time>2016-11-09T08:16:40Z</time>
      </trkpt>
      <trkpt lat="44.32123" lon="4.77063">
        <ele>274</ele>
        <time>2016-11-09T08:18:40Z</time>
      </trkpt>
      <trkpt lat="44.32119" lon="4.77066">
        <ele>274</ele>
        <time>2016-11-09T08:20:40Z</time>
      </trkpt>
      <trkpt lat="44.3212" lon="4.77067">
        <ele>274</ele>
        <time>2016-11-09T08:22:40Z</time>
      </trkpt>
      <trkpt lat="44.32121" lon="4.77065">
        <ele>274</ele>
        <time>2016-11-09T08:24:40Z</time>
      </trkpt>
      <trkpt lat="44.32118" lon="4.77069">
        <ele>274</ele>
        <time>2016-11-09T08:26:40Z</time>
      </trkpt>
      <trkpt lat="44.32108" lon="4.77079">
        <ele>274</ele>
        <time>2016-11-09T08:28:40Z</time>
      </trkpt>
      <trkpt lat="44.32094" lon="4.77081">
        <ele>274</ele>
        <time>2016-11-09T08:30:40Z</time>
      </trkpt>
      <trkpt lat="44.32093" lon="4.77094">
        <ele>274</ele>
        <time>2016-11-09T08:32:40Z</time>
      </trkpt>
      <trkpt lat="44.32095" lon="4.77106">
        <ele>274</ele>
        <time>2016-11-09T08:34:40Z</time>
      </trkpt>
      <trkpt lat="44.32096" lon="4.77122">
        <ele>274</ele>
        <time>2016-11-09T08:36:40Z</time>
      </trkpt>
      <trkpt lat="44.32101" lon="4.77132">
        <ele>274</ele>
        <time>2016-11-09T08:38:40Z</time>
      </trkpt>
      <trkpt lat="44.32101" lon="4.77149">
        <ele>274</ele>
        <time>2016-11-09T08:40:40Z</time>
      </trkpt>
      <trkpt lat="44.32102" lon="4.77171">
        <ele>274</ele>
        <time>2016-11-09T08:42:40Z</time>
      </trkpt>
      <trkpt lat="44.32104" lon="4.77191">
        <ele>274</ele>
        <time>2016-11-09T08:44:40Z</time>
      </trkpt>
      <trkpt lat="44.32109" lon="4.77235">
        <ele>273</ele>
        <time>2016-11-09T08:46:40Z</time>
      </trkpt>
      <trkpt lat="44.32114" lon="4.77255">
        <ele>273</ele>
        <time>2016-11-09T08:48:40Z</time>
      </trkpt>
      <trkpt lat="44.32118" lon="4.77277">
        <ele>272</ele>
        <time>2016-11-09T08:50:40Z</time>
      </trkpt>
      <trkpt lat="44.32122" lon="4.77291">
        <ele>272</ele>
        <time>2016-11-09T08:52:40Z</time>
      </trkpt>
      <trkpt lat="44.32125" lon="4.77311">
        <ele>271</ele>
        <time>2016-11-09T08:54:40Z</time>
      </trkpt>
      <trkpt lat="44.32124" lon="4.77325">
        <ele>271</ele>
        <time>2016-11-09T08:56:40Z</time>
      </trkpt>
      <trkpt lat="44.32128" lon="4.77332">
        <ele>271</ele>
        <time>2016-11-09T08:58:40Z</time>
      </trkpt>
      <trkpt lat="44.32131" lon="4.77339">
        <ele>271</ele>
        <time>2016-11-09T09:00:40Z</time>
      </trkpt>
      <trkpt lat="44.32137" lon="4.77363">
        <ele>270</ele>
        <time>2016-11-09T09:02:40Z</time>
      </trkpt>
      <trkpt lat="44.3214" lon="4.7738">
        <ele>269</ele>
        <time>2016-11-09T09:04:40Z</time>
      </trkpt>
      <trkpt lat="44.32141" lon="4.77386">
        <ele>269</ele>
        <time>2016-11-09T09:06:40Z</time>
      </trkpt>
      <trkpt lat="44.32143" lon="4.77391">
        <ele>268</ele>
        <time>2016-11-09T09:08:40Z</time>
      </trkpt>
      <trkpt lat="44.32144" lon="4.77405">
        <ele>268</ele>
        <time>2016-11-09T09:10:40Z</time>
      </trkpt>
      <trkpt lat="44.3214" lon="4.77422">
        <ele>267</ele>
        <time>2016-11-09T09:12:40Z</time>
      </trkpt>
      <trkpt lat="44.32136" lon="4.77441">
        <ele>266</ele>
        <time>2016-11-09T09:14:40Z</time>
      </trkpt>
      <trkpt lat="44.32139" lon="4.77454">
        <ele>265</ele>
        <time>2016-11-09T09:16:40Z</time>
      </trkpt>
      <trkpt lat="44.32139" lon="4.77457">
        <ele>264</ele>
        <time>2016-11-09T09:18:40Z</time>
      </trkpt>
      <trkpt lat="44.3214" lon="4.77478">
        <ele>263</ele>
        <time>2016-11-09T09:20:40Z</time>
      </trkpt>
      <trkpt lat="44.32131" lon="4.77494">
        <ele>262</ele>
        <time>2016-11-09T09:22:40Z</time>
      </trkpt>
      <trkpt lat="44.32115" lon="4.77501">
        <ele>262</ele>
        <time>2016-11-09T09:24:40Z</time>
      </trkpt>
      <trkpt lat="44.321" lon="4.77508">
        <ele>261</ele>
        <time>2016-11-09T09:26:40Z</time>
      </trkpt>
      <trkpt lat="44.32083" lon="4.77513">
        <ele>261</ele>
        <time>2016-11-09T09:28:40Z</time>
      </trkpt>
      <trkpt lat="44.32067" lon="4.77514">
        <ele>261</ele>
        <time>2016-11-09T09:30:40Z</time>
      </trkpt>
      <trkpt lat="44.32047" lon="4.77511">
        <ele>261</ele>
        <time>2016-11-09T09:32:40Z</time>
      </trkpt>
      <trkpt lat="44.3204" lon="4.77508">
        <ele>262</ele>
        <time>2016-11-09T09:34:40Z</time>
      </trkpt>
      <trkpt lat="44.32036" lon="4.77517">
        <ele>261</ele>
        <time>2016-11-09T09:36:40Z</time>
      </trkpt>
      <trkpt lat="44.32035" lon="4.77566">
        <ele>258</ele>
        <time>2016-11-09T09:38:40Z</time>
      </trkpt>
      <trkpt lat="44.32038" lon="4.77591">
        <ele>257</ele>
        <time>2016-11-09T09:40:40Z</time>
      </trkpt>
      <trkpt lat="44.32039" lon="4.77638">
        <ele>256</ele>
        <time>2016-11-09T09:42:40Z</time>
      </trkpt>
      <trkpt lat="44.32042" lon="4.77678">
        <ele>254</ele>
        <time>2016-11-09T09:44:40Z</time>
      </trkpt>
      <trkpt lat="44.32041" lon="4.77697">
        <ele>253</ele>
        <time>2016-11-09T09:46:40Z</time>
      </trkpt>
      <trkpt lat="44.32044" lon="4.77718">
        <ele>252</ele>
        <time>2016-11-09T09:48:40Z</time>
      </trkpt>
      <trkpt lat="44.32051" lon="4.77756">
        <ele>250</ele>
        <time>2016-11-09T09:50:40Z</time>
      </trkpt>
      <trkpt lat="44.32056" lon="4.7778">
        <ele>248</ele>
        <time>2016-11-09T09:52:40Z</time>
      </trkpt>
      <trkpt lat="44.3205" lon="4.77797">
        <ele>247</ele>
        <time>2016-11-09T09:54:40Z</time>
      </trkpt>
      <trkpt lat="44.32045" lon="4.77815">
        <ele>246</ele>
        <time>2016-11-09T09:56:40Z</time>
      </trkpt>
      <trkpt lat="44.32043" lon="4.77835">
        <ele>244</ele>
        <time>2016-11-09T09:58:40Z</time>
      </trkpt>
      <trkpt lat="44.32043" lon="4.77847">
        <ele>243</ele>
        <time>2016-11-09T10:00:40Z</time>
      </trkpt>
      <trkpt lat="44.32048" lon="4.77843">
        <ele>243</ele>
        <time>2016-11-09T10:02:40Z</time>
      </trkpt>
      <trkpt lat="44.3204" lon="4.77849">
        <ele>243</ele>
        <time>2016-11-09T10:04:40Z</time>
      </trkpt>
      <trkpt lat="44.3204" lon="4.77859">
        <ele>242</ele>
        <time>2016-11-09T10:06:40Z</time>
      </trkpt>
      <trkpt lat="44.32039" lon="4.77863">
        <ele>241</ele>
        <time>2016-11-09T10:08:40Z</time>
      </trkpt>
      <trkpt lat="44.32039" lon="4.77865">
        <ele>241</ele>
        <time>2016-11-09T10:10:40Z</time>
      </trkpt>
      <trkpt lat="44.3204" lon="4.77863">
        <ele>241</ele>
        <time>2016-11-09T10:12:40Z</time>
      </trkpt>
      <trkpt lat="44.32038" lon="4.77877">
        <ele>240</ele>
        <time>2016-11-09T10:14:40Z</time>
      </trkpt>
      <trkpt lat="44.32036" lon="4.77895">
        <ele>238</ele>
        <time>2016-11-09T10:16:40Z</time>
      </trkpt>
      <trkpt lat="44.32038" lon="4.77914">
        <ele>236</ele>
        <time>2016-11-09T10:18:40Z</time>
      </trkpt>
      <trkpt lat="44.32038" lon="4.77916">
        <ele>236</ele>
        <time>2016-11-09T10:20:40Z</time>
      </trkpt>
      <trkpt lat="44.3204" lon="4.77927">
        <ele>235</ele>
        <time>2016-11-09T10:22:40Z</time>
      </trkpt>
      <trkpt lat="44.32041" lon="4.77937">
        <ele>234</ele>
        <time>2016-11-09T10:24:40Z</time>
      </trkpt>
      <trkpt lat="44.3204" lon="4.77939">
        <ele>234</ele>
        <time>2016-11-09T10:26:40Z</time>
      </trkpt>
      <trkpt lat="44.32037" lon="4.77941">
        <ele>234</ele>
        <time>2016-11-09T10:28:40Z</time>
      </trkpt>
      <trkpt lat="44.32043" lon="4.77951">
        <ele>233</ele>
        <time>2016-11-09T10:30:40Z</time>
      </trkpt>
      <trkpt lat="44.32047" lon="4.77963">
        <ele>232</ele>
        <time>2016-11-09T10:32:40Z</time>
      </trkpt>
      <trkpt lat="44.32048" lon="4.77965">
        <ele>232</ele>
        <time>2016-11-09T10:34:40Z</time>
      </trkpt>
      <trkpt lat="44.32049" lon="4.77982">
        <ele>231</ele>
        <time>2016-11-09T10:36:40Z</time>
      </trkpt>
      <trkpt lat="44.32051" lon="4.77985">
        <ele>231</ele>
        <time>2016-11-09T10:38:40Z</time>
      </trkpt>
      <trkpt lat="44.32053" lon="4.77991">
        <ele>230</ele>
        <time>2016-11-09T10:40:40Z</time>
      </trkpt>
      <trkpt lat="44.32051" lon="4.78">
        <ele>230</ele>
        <time>2016-11-09T10:42:40Z</time>
      </trkpt>
      <trkpt lat="44.32039" lon="4.78">
        <ele>231</ele>
        <time>2016-11-09T10:44:40Z</time>
      </trkpt>
      <trkpt lat="44.32019" lon="4.77997">
        <ele>232</ele>
        <time>2016-11-09T10:46:40Z</time>
      </trkpt>
      <trkpt lat="44.32003" lon="4.77991">
        <ele>233</ele>
        <time>2016-11-09T10:48:40Z</time>
      </trkpt>
      <trkpt lat="44.31986" lon="4.77983">
        <ele>234</ele>
        <time>2016-11-09T10:50:40Z</time>
      </trkpt>
      <trkpt lat="44.31963" lon="4.77968">
        <ele>234</ele>
        <time>2016-11-09T10:52:40Z</time>
      </trkpt>
      <trkpt lat="44.31951" lon="4.77965">
        <ele>233</ele>
        <time>2016-11-09T10:54:40Z</time>
      </trkpt>
      <trkpt lat="44.31933" lon="4.77964">
        <ele>233</ele>
        <time>2016-11-09T10:56:40Z</time>
      </trkpt>
      <trkpt lat="44.31921" lon="4.77961">
        <ele>233</ele>
        <time>2016-11-09T10:58:40Z</time>
      </trkpt>
      <trkpt lat="44.31915" lon="4.77961">
        <ele>232</ele>
        <time>2016-11-09T11:00:40Z</time>
      </trkpt>
      <trkpt lat="44.31903" lon="4.77956">
        <ele>232</ele>
        <time>2016-11-09T11:02:40Z</time>
      </trkpt>
      <trkpt lat="44.319" lon="4.77947">
        <ele>232</ele>
        <time>2016-11-09T11:04:40Z</time>
      </trkpt>
      <trkpt lat="44.31894" lon="4.77937">
        <ele>232</ele>
        <time>2016-11-09T11:06:40Z</time>
      </trkpt>
      <trkpt lat="44.31892" lon="4.77935">
        <ele>232</ele>
        <time>2016-11-09T11:08:40Z</time>
      </trkpt>
      <trkpt lat="44.31883" lon="4.77924">
        <ele>232</ele>
        <time>2016-11-09T11:10:40Z</time>
      </trkpt>
      <trkpt lat="44.31881" lon="4.7792">
        <ele>232</ele>
        <time>2016-11-09T11:12:40Z</time>
      </trkpt>
      <trkpt lat="44.31872" lon="4.77905">
        <ele>232</ele>
        <time>2016-11-09T11:14:40Z</time>
      </trkpt>
      <trkpt lat="44.31863" lon="4.77892">
        <ele>233</ele>
        <time>2016-11-09T11:16:40Z</time>
      </trkpt>
      <trkpt lat="44.31859" lon="4.77881">
        <ele>233</ele>
        <time>2016-11-09T11:18:40Z</time>
      </trkpt>
      <trkpt lat="44.31857" lon="4.77876">
        <ele>234</ele>
        <time>2016-11-09T11:20:40Z</time>
      </trkpt>
      <trkpt lat="44.3185" lon="4.77861">
        <ele>235</ele>
        <time>2016-11-09T11:22:40Z</time>
      </trkpt>
      <trkpt lat="44.31848" lon="4.77846">
        <ele>236</ele>
        <time>2016-11-09T11:24:40Z</time>
      </trkpt>
      <trkpt lat="44.31848" lon="4.7783">
        <ele>237</ele>
        <time>2016-11-09T11:26:40Z</time>
      </trkpt>
      <trkpt lat="44.31847" lon="4.77812">
        <ele>238</ele>
        <time>2016-11-09T11:28:40Z</time>
      </trkpt>
      <trkpt lat="44.31843" lon="4.77793">
        <ele>239</ele>
        <time>2016-11-09T11:30:40Z</time>
      </trkpt>
      <trkpt lat="44.31848" lon="4.77774">
        <ele>241</ele>
        <time>2016-11-09T11:32:40Z</time>
      </trkpt>
      <trkpt lat="44.31848" lon="4.77767">
        <ele>241</ele>
        <time>2016-11-09T11:34:40Z</time>
      </trkpt>
      <trkpt lat="44.31845" lon="4.77762">
        <ele>242</ele>
        <time>2016-11-09T11:36:40Z</time>
      </trkpt>
      <trkpt lat="44.31835" lon="4.77758">
        <ele>242</ele>
        <time>2016-11-09T11:38:40Z</time>
      </trkpt>
      <trkpt lat="44.31828" lon="4.77752">
        <ele>242</ele>
        <time>2016-11-09T11:40:40Z</time>
      </trkpt>
      <trkpt lat="44.31813" lon="4.77745">
        <ele>242</ele>
        <time>2016-11-09T11:42:40Z</time>
      </trkpt>
      <trkpt lat="44.31801" lon="4.77736">
        <ele>242</ele>
        <time>2016-11-09T11:44:40Z</time>
      </trkpt>
      <trkpt lat="44.31799" lon="4.77734">
        <ele>243</ele>
        <time>2016-11-09T11:46:40Z</time>
      </trkpt>
      <trkpt lat="44.31787" lon="4.7772">
        <ele>244</ele>
        <time>2016-11-09T11:48:40Z</time>
      </trkpt>
      <trkpt lat="44.31782" lon="4.77717">
        <ele>244</ele>
        <time>2016-11-09T11:50:40Z</time>
      </trkpt>
      <trkpt lat="44.31771" lon="4.77711">
        <ele>244</ele>
        <time>2016-11-09T11:52:40Z</time>
      </trkpt>
      <trkpt lat="44.3176" lon="4.77703">
        <ele>245</ele>
        <time>2016-11-09T11:54:40Z</time>
      </trkpt>
      <trkpt lat="44.3175" lon="4.77696">
        <ele>246</ele>
        <time>2016-11-09T11:56:40Z</time>
      </trkpt>
      <trkpt lat="44.31748" lon="4.77693">
        <ele>246</ele>
        <time>2016-11-09T11:58:40Z</time>
      </trkpt>
      <trkpt lat="44.31739" lon="4.77683">
        <ele>246</ele>
        <time>2016-11-09T12:00:40Z</time>
      </trkpt>
      <trkpt lat="44.31733" lon="4.77674">
        <ele>246</ele>
        <time>2016-11-09T12:02:40Z</time>
      </trkpt>
      <trkpt lat="44.31723" lon="4.77663">
        <ele>247</ele>
        <time>2016-11-09T12:04:40Z</time>
      </trkpt>
      <trkpt lat="44.31711" lon="4.77653">
        <ele>246</ele>
        <time>2016-11-09T12:06:40Z</time>
      </trkpt>
      <trkpt lat="44.31703" lon="4.77647">
        <ele>246</ele>
        <time>2016-11-09T12:08:40Z</time>
      </trkpt>
      <trkpt lat="44.31696" lon="4.77631">
        <ele>247</ele>
        <time>2016-11-09T12:10:40Z</time>
      </trkpt>
      <trkpt lat="44.31687" lon="4.77615">
        <ele>248</ele>
        <time>2016-11-09T12:12:40Z</time>
      </trkpt>
      <trkpt lat="44.31678" lon="4.77604">
        <ele>248</ele>
        <time>2016-11-09T12:14:40Z</time>
      </trkpt>
      <trkpt lat="44.31658" lon="4.77587">
        <ele>248</ele>
        <time>2016-11-09T12:16:40Z</time>
      </trkpt>
      <trkpt lat="44.31648" lon="4.77578">
        <ele>247</ele>
        <time>2016-11-09T12:18:40Z</time>
      </trkpt>
      <trkpt lat="44.31636" lon="4.77559">
        <ele>245</ele>
        <time>2016-11-09T12:20:40Z</time>
      </trkpt>
      <trkpt lat="44.3163" lon="4.77558">
        <ele>244</ele>
        <time>2016-11-09T12:22:40Z</time>
      </trkpt>
      <trkpt lat="44.31631" lon="4.7756">
        <ele>244</ele>
        <time>2016-11-09T12:24:40Z</time>
      </trkpt>
      <trkpt lat="44.31617" lon="4.77566">
        <ele>241</ele>
        <time>2016-11-09T12:26:40Z</time>
      </trkpt>
      <trkpt lat="44.3161" lon="4.77566">
        <ele>240</ele>
        <time>2016-11-09T12:28:40Z</time>
      </trkpt>
      <trkpt lat="44.31602" lon="4.77562">
        <ele>238</ele>
        <time>2016-11-09T12:30:40Z</time>
      </trkpt>
      <trkpt lat="44.31593" lon="4.7756">
        <ele>237</ele>
        <time>2016-11-09T12:32:40Z</time>
      </trkpt>
      <trkpt lat="44.31583" lon="4.7756">
        <ele>234</ele>
        <time>2016-11-09T12:34:40Z</time>
      </trkpt>
      <trkpt lat="44.31581" lon="4.7756">
        <ele>234</ele>
        <time>2016-11-09T12:36:40Z</time>
      </trkpt>
      <trkpt lat="44.31583" lon="4.77561">
        <ele>234</ele>
        <time>2016-11-09T12:38:40Z</time>
      </trkpt>
      <trkpt lat="44.31584" lon="4.77558">
        <ele>235</ele>
        <time>2016-11-09T12:40:40Z</time>
      </trkpt>
      <trkpt lat="44.31586" lon="4.77552">
        <ele>235</ele>
        <time>2016-11-09T12:42:40Z</time>
      </trkpt>
      <trkpt lat="44.31578" lon="4.77544">
        <ele>233</ele>
        <time>2016-11-09T12:44:40Z</time>
      </trkpt>
      <trkpt lat="44.31575" lon="4.77546">
        <ele>232</ele>
        <time>2016-11-09T12:46:40Z</time>
      </trkpt>
      <trkpt lat="44.31577" lon="4.77553">
        <ele>232</ele>
        <time>2016-11-09T12:48:40Z</time>
      </trkpt>
      <trkpt lat="44.31575" lon="4.7756">
        <ele>231</ele>
        <time>2016-11-09T12:50:40Z</time>
      </trkpt>
      <trkpt lat="44.3157" lon="4.77564">
        <ele>229</ele>
        <time>2016-11-09T12:52:40Z</time>
      </trkpt>
      <trkpt lat="44.31566" lon="4.77566">
        <ele>228</ele>
        <time>2016-11-09T12:54:40Z</time>
      </trkpt>
      <trkpt lat="44.3156" lon="4.77576">
        <ele>225</ele>
        <time>2016-11-09T12:56:40Z</time>
      </trkpt>
      <trkpt lat="44.31558" lon="4.77575">
        <ele>224</ele>
        <time>2016-11-09T12:58:40Z</time>
      </trkpt>
      <trkpt lat="44.31558" lon="4.77575">
        <ele>224</ele>
        <time>2016-11-09T13:00:40Z</time>
      </trkpt>
      <trkpt lat="44.31559" lon="4.77575">
        <ele>225</ele>
        <time>2016-11-09T13:02:40Z</time>
      </trkpt>
      <trkpt lat="44.31564" lon="4.77554">
        <ele>227</ele>
        <time>2016-11-09T13:04:40Z</time>
      </trkpt>
      <trkpt lat="44.31554" lon="4.77572">
        <ele>223</ele>
        <time>2016-11-09T13:06:40Z</time>
      </trkpt>
      <trkpt lat="44.31554" lon="4.77571">
        <ele>223</ele>
        <time>2016-11-09T13:08:40Z</time>
      </trkpt>
      <trkpt lat="44.31555" lon="4.77569">
        <ele>223</ele>
        <time>2016-11-09T13:10:40Z</time>
      </trkpt>
      <trkpt lat="44.31556" lon="4.77567">
        <ele>224</ele>
        <time>2016-11-09T13:12:40Z</time>
      </trkpt>
      <trkpt lat="44.31555" lon="4.77569">
        <ele>223</ele>
        <time>2016-11-09T13:14:40Z</time>
      </trkpt>
      <trkpt lat="44.31555" lon="4.77567">
        <ele>223</ele>
        <time>2016-11-09T13:16:40Z</time>
      </trkpt>
      <trkpt lat="44.31555" lon="4.77567">
        <ele>223</ele>
        <time>2016-11-09T13:18:40Z</time>
      </trkpt>
      <trkpt lat="44.31555" lon="4.77568">
        <ele>223</ele>
        <time>2016-11-09T13:20:40Z</time>
      </trkpt>
      <trkpt lat="44.31554" lon="4.77568">
        <ele>223</ele>
        <time>2016-11-09T13:22:40Z</time>
      </trkpt>
      <trkpt lat="44.31554" lon="4.77569">
        <ele>223</ele>
        <time>2016-11-09T13:24:40Z</time>
      </trkpt>
      <trkpt lat="44.31556" lon="4.77569">
        <ele>223</ele>
        <time>2016-11-09T13:26:40Z</time>
      </trkpt>
      <trkpt lat="44.31558" lon="4.77569">
        <ele>224</ele>
        <time>2016-11-09T13:28:40Z</time>
      </trkpt>
      <trkpt lat="44.31564" lon="4.77562">
        <ele>227</ele>
        <time>2016-11-09T13:30:40Z</time>
      </trkpt>
      <trkpt lat="44.31563" lon="4.77557">
        <ele>227</ele>
        <time>2016-11-09T13:32:40Z</time>
      </trkpt>
      <trkpt lat="44.31562" lon="4.77556">
        <ele>226</ele>
        <time>2016-11-09T13:34:40Z</time>
      </trkpt>
      <trkpt lat="44.31561" lon="4.77553">
        <ele>226</ele>
        <time>2016-11-09T13:36:40Z</time>
      </trkpt>
      <trkpt lat="44.31554" lon="4.77552">
        <ele>223</ele>
        <time>2016-11-09T13:38:40Z</time>
      </trkpt>
      <trkpt lat="44.3155" lon="4.77544">
        <ele>222</ele>
        <time>2016-11-09T13:40:40Z</time>
      </trkpt>
      <trkpt lat="44.31552" lon="4.77547">
        <ele>222</ele>
        <time>2016-11-09T13:42:40Z</time>
      </trkpt>
      <trkpt lat="44.31554" lon="4.77556">
        <ele>223</ele>
        <time>2016-11-09T13:44:40Z</time>
      </trkpt>
      <trkpt lat="44.31553" lon="4.77566">
        <ele>222</ele>
        <time>2016-11-09T13:46:40Z</time>
      </trkpt>
      <trkpt lat="44.31553" lon="4.77566">
        <ele>222</ele>
        <time>2016-11-09T13:48:40Z</time>
      </trkpt>
      <trkpt lat="44.31551" lon="4.77565">
        <ele>222</ele>
        <time>2016-11-09T13:50:40Z</time>
      </trkpt>
      <trkpt lat="44.31554" lon="4.77565">
        <ele>223</ele>
        <time>2016-11-09T13:52:40Z</time>
      </trkpt>
      <trkpt lat="44.31555" lon="4.77564">
        <ele>223</ele>
        <time>2016-11-09T13:54:40Z</time>
      </trkpt>
      <trkpt lat="44.31554" lon="4.77567">
        <ele>223</ele>
        <time>2016-11-09T13:56:40Z</time>
      </trkpt>
      <trkpt lat="44.31554" lon="4.77569">
        <ele>223</ele>
        <time>2016-11-09T13:58:40Z</time>
      </trkpt>
      <trkpt lat="44.31557" lon="4.77566">
        <ele>224</ele>
        <time>2016-11-09T14:00:40Z</time>
      </trkpt>
      <trkpt lat="44.31559" lon="4.77565">
        <ele>225</ele>
        <time>2016-11-09T14:02:40Z</time>
      </trkpt>
      <trkpt lat="44.31558" lon="4.77567">
        <ele>224</ele>
        <time>2016-11-09T14:04:40Z</time>
      </trkpt>
      <trkpt lat="44.31558" lon="4.77566">
        <ele>224</ele>
        <time>2016-11-09T14:06:40Z</time>
      </trkpt>
      <trkpt lat="44.31559" lon="4.77563">
        <ele>225</ele>
        <time>2016-11-09T14:08:40Z</time>
      </trkpt>
      <trkpt lat="44.31558" lon="4.77566">
        <ele>224</ele>
        <time>2016-11-09T14:10:40Z</time>
      </trkpt>
      <trkpt lat="44.31557" lon="4.77566">
        <ele>224</ele>
        <time>2016-11-09T14:12:40Z</time>
      </trkpt>
      <trkpt lat="44.31558" lon="4.77566">
        <ele>224</ele>
        <time>2016-11-09T14:14:40Z</time>
      </trkpt>
      <trkpt lat="44.3156" lon="4.77565">
        <ele>225</ele>
        <time>2016-11-09T14:16:40Z</time>
      </trkpt>
      <trkpt lat="44.3156" lon="4.77567">
        <ele>225</ele>
        <time>2016-11-09T14:18:40Z</time>
      </trkpt>
      <trkpt lat="44.31556" lon="4.77567">
        <ele>224</ele>
        <time>2016-11-09T14:20:40Z</time>
      </trkpt>
      <trkpt lat="44.31557" lon="4.77566">
        <ele>224</ele>
        <time>2016-11-09T14:22:40Z</time>
      </trkpt>
      <trkpt lat="44.31558" lon="4.77566">
        <ele>224</ele>
        <time>2016-11-09T14:24:40Z</time>
      </trkpt>
      <trkpt lat="44.31559" lon="4.77567">
        <ele>225</ele>
        <time>2016-11-09T14:26:40Z</time>
      </trkpt>
      <trkpt lat="44.31557" lon="4.77568">
        <ele>224</ele>
        <time>2016-11-09T14:28:40Z</time>
      </trkpt>
      <trkpt lat="44.31558" lon="4.77565">
        <ele>224</ele>
        <time>2016-11-09T14:30:40Z</time>
      </trkpt>
      <trkpt lat="44.31557" lon="4.77564">
        <ele>224</ele>
        <time>2016-11-09T14:32:40Z</time>
      </trkpt>
      <trkpt lat="44.31559" lon="4.77566">
        <ele>225</ele>
        <time>2016-11-09T14:34:40Z</time>
      </trkpt>
      <trkpt lat="44.31559" lon="4.77564">
        <ele>225</ele>
        <time>2016-11-09T14:36:40Z</time>
      </trkpt>
      <trkpt lat="44.3156" lon="4.77565">
        <ele>225</ele>
        <time>2016-11-09T14:38:40Z</time>
      </trkpt>
      <trkpt lat="44.31561" lon="4.77567">
        <ele>225</ele>
        <time>2016-11-09T14:40:40Z</time>
      </trkpt>
      <trkpt lat="44.31559" lon="4.77566">
        <ele>225</ele>
        <time>2016-11-09T14:42:40Z</time>
      </trkpt>
      <trkpt lat="44.3156" lon="4.77569">
        <ele>225</ele>
        <time>2016-11-09T14:44:40Z</time>
      </trkpt>
      <trkpt lat="44.31562" lon="4.77568">
        <ele>226</ele>
        <time>2016-11-09T14:46:40Z</time>
      </trkpt>
      <trkpt lat="44.31561" lon="4.77565">
        <ele>226</ele>
        <time>2016-11-09T14:48:40Z</time>
      </trkpt>
      <trkpt lat="44.31561" lon="4.77563">
        <ele>226</ele>
        <time>2016-11-09T14:50:40Z</time>
      </trkpt>
      <trkpt lat="44.3156" lon="4.77562">
        <ele>225</ele>
        <time>2016-11-09T14:52:40Z</time>
      </trkpt>
      <trkpt lat="44.31562" lon="4.77566">
        <ele>226</ele>
        <time>2016-11-09T14:54:40Z</time>
      </trkpt>
      <trkpt lat="44.31565" lon="4.77564">
        <ele>227</ele>
        <time>2016-11-09T14:56:40Z</time>
      </trkpt>
      <trkpt lat="44.31572" lon="4.7757">
        <ele>230</ele>
        <time>2016-11-09T14:58:40Z</time>
      </trkpt>
      <trkpt lat="44.31575" lon="4.77563">
        <ele>231</ele>
        <time>2016-11-09T15:00:40Z</time>
      </trkpt>
      <trkpt lat="44.31578" lon="4.77553">
        <ele>233</ele>
        <time>2016-11-09T15:02:40Z</time>
      </trkpt>
      <trkpt lat="44.31578" lon="4.77546">
        <ele>233</ele>
        <time>2016-11-09T15:04:40Z</time>
      </trkpt>
      <trkpt lat="44.31584" lon="4.77552">
        <ele>235</ele>
        <time>2016-11-09T15:06:40Z</time>
      </trkpt>
      <trkpt lat="44.31592" lon="4.7755">
        <ele>237</ele>
        <time>2016-11-09T15:08:40Z</time>
      </trkpt>
      <trkpt lat="44.31598" lon="4.77558">
        <ele>238</ele>
        <time>2016-11-09T15:10:40Z</time>
      </trkpt>
      <trkpt lat="44.31603" lon="4.77567">
        <ele>238</ele>
        <time>2016-11-09T15:12:40Z</time>
      </trkpt>
      <trkpt lat="44.31609" lon="4.77569">
        <ele>239</ele>
        <time>2016-11-09T15:14:40Z</time>
      </trkpt>
      <trkpt lat="44.31619" lon="4.77567">
        <ele>242</ele>
        <time>2016-11-09T15:16:40Z</time>
      </trkpt>
      <trkpt lat="44.31629" lon="4.77559">
        <ele>244</ele>
        <time>2016-11-09T15:18:40Z</time>
      </trkpt>
      <trkpt lat="44.31627" lon="4.77544">
        <ele>244</ele>
        <time>2016-11-09T15:20:40Z</time>
      </trkpt>
      <trkpt lat="44.31626" lon="4.77529">
        <ele>245</ele>
        <time>2016-11-09T15:22:40Z</time>
      </trkpt>
      <trkpt lat="44.3163" lon="4.77516">
        <ele>246</ele>
        <time>2016-11-09T15:24:40Z</time>
      </trkpt>
      <trkpt lat="44.31633" lon="4.77495">
        <ele>247</ele>
        <time>2016-11-09T15:26:40Z</time>
      </trkpt>
      <trkpt lat="44.31639" lon="4.77478">
        <ele>247</ele>
        <time>2016-11-09T15:28:40Z</time>
      </trkpt>
      <trkpt lat="44.31655" lon="4.77445">
        <ele>249</ele>
        <time>2016-11-09T15:30:40Z</time>
      </trkpt>
      <trkpt lat="44.31658" lon="4.77441">
        <ele>250</ele>
        <time>2016-11-09T15:32:40Z</time>
      </trkpt>
      <trkpt lat="44.31663" lon="4.77434">
        <ele>251</ele>
        <time>2016-11-09T15:34:40Z</time>
      </trkpt>
      <trkpt lat="44.31673" lon="4.7742">
        <ele>252</ele>
        <time>2016-11-09T15:36:40Z</time>
      </trkpt>
      <trkpt lat="44.31682" lon="4.77412">
        <ele>252</ele>
        <time>2016-11-09T15:38:40Z</time>
      </trkpt>
      <trkpt lat="44.31691" lon="4.77409">
        <ele>252</ele>
        <time>2016-11-09T15:40:40Z</time>
      </trkpt>
      <trkpt lat="44.31703" lon="4.77398">
        <ele>253</ele>
        <time>2016-11-09T15:42:40Z</time>
      </trkpt>
      <trkpt lat="44.31708" lon="4.77382">
        <ele>253</ele>
        <time>2016-11-09T15:44:40Z</time>
      </trkpt>
      <trkpt lat="44.31711" lon="4.77361">
        <ele>252</ele>
        <time>2016-11-09T15:46:40Z</time>
      </trkpt>
      <trkpt lat="44.31708" lon="4.77342">
        <ele>251</ele>
        <time>2016-11-09T15:48:40Z</time>
      </trkpt>
      <trkpt lat="44.31707" lon="4.77323">
        <ele>251</ele>
        <time>2016-11-09T15:50:40Z</time>
      </trkpt>
      <trkpt lat="44.317" lon="4.77299">
        <ele>251</ele>
        <time>2016-11-09T15:52:40Z</time>
      </trkpt>
      <trkpt lat="44.31696" lon="4.77284">
        <ele>251</ele>
        <time>2016-11-09T15:54:40Z</time>
      </trkpt>
      <trkpt lat="44.31694" lon="4.77252">
        <ele>253</ele>
        <time>2016-11-09T15:56:40Z</time>
      </trkpt>
      <trkpt lat="44.31686" lon="4.77236">
        <ele>252</ele>
        <time>2016-11-09T15:58:40Z</time>
      </trkpt>
      <trkpt lat="44.31672" lon="4.77217">
        <ele>252</ele>
        <time>2016-11-09T16:00:40Z</time>
      </trkpt>
      <trkpt lat="44.31666" lon="4.7721">
        <ele>252</ele>
        <time>2016-11-09T16:02:40Z</time>
      </trkpt>
      <trkpt lat="44.31663" lon="4.77204">
        <ele>252</ele>
        <time>2016-11-09T16:04:40Z</time>
      </trkpt>
      <trkpt lat="44.31655" lon="4.77183">
        <ele>253</ele>
        <time>2016-11-09T16:06:40Z</time>
      </trkpt>
      <trkpt lat="44.31647" lon="4.7717">
        <ele>253</ele>
        <time>2016-11-09T16:08:40Z</time>
      </trkpt>
      <trkpt lat="44.3165" lon="4.77162">
        <ele>254</ele>
        <time>2016-11-09T16:10:40Z</time>
      </trkpt>
      <trkpt lat="44.31654" lon="4.77161">
        <ele>254</ele>
        <time>2016-11-09T16:12:40Z</time>
      </trkpt>
      <trkpt lat="44.31665" lon="4.77152">
        <ele>256</ele>
        <time>2016-11-09T16:14:40Z</time>
      </trkpt>
      <trkpt lat="44.31678" lon="4.77147">
        <ele>256</ele>
        <time>2016-11-09T16:16:40Z</time>
      </trkpt>
      <trkpt lat="44.317" lon="4.7714">
        <ele>257</ele>
        <time>2016-11-09T16:18:40Z</time>
      </trkpt>
      <trkpt lat="44.31713" lon="4.77134">
        <ele>257</ele>
        <time>2016-11-09T16:20:40Z</time>
      </trkpt>
      <trkpt lat="44.31725" lon="4.77134">
        <ele>257</ele>
        <time>2016-11-09T16:22:40Z</time>
      </trkpt>
      <trkpt lat="44.31732" lon="4.77126">
        <ele>256</ele>
        <time>2016-11-09T16:24:40Z</time>
      </trkpt>
      <trkpt lat="44.31738" lon="4.77122">
        <ele>256</ele>
        <time>2016-11-09T16:26:40Z</time>
      </trkpt>
      <trkpt lat="44.31739" lon="4.7712">
        <ele>256</ele>
        <time>2016-11-09T16:28:40Z</time>
      </trkpt>
      <trkpt lat="44.31761" lon="4.77106">
        <ele>256</ele>
        <time>2016-11-09T16:30:40Z</time>
      </trkpt>
      <trkpt lat="44.31775" lon="4.77099">
        <ele>256</ele>
        <time>2016-11-09T16:32:40Z</time>
      </trkpt>
      <trkpt lat="44.31788" lon="4.77102">
        <ele>257</ele>
        <time>2016-11-09T16:34:40Z</time>
      </trkpt>
      <trkpt lat="44.31802" lon="4.77102">
        <ele>258</ele>
        <time>2016-11-09T16:36:40Z</time>
      </trkpt>
      <trkpt lat="44.31817" lon="4.771">
        <ele>258</ele>
        <time>2016-11-09T16:38:40Z</time>
      </trkpt>
      <trkpt lat="44.31829" lon="4.771">
        <ele>259</ele>
        <time>2016-11-09T16:40:40Z</time>
      </trkpt>
      <trkpt lat="44.31848" lon="4.77098">
        <ele>261</ele>
        <time>2016-11-09T16:42:40Z</time>
      </trkpt>
      <trkpt lat="44.31867" lon="4.7709">
        <ele>263</ele>
        <time>2016-11-09T16:44:40Z</time>
      </trkpt>
      <trkpt lat="44.31868" lon="4.77089">
        <ele>263</ele>
        <time>2016-11-09T16:46:40Z</time>
      </trkpt>
      <trkpt lat="44.31875" lon="4.77081">
        <ele>263</ele>
        <time>2016-11-09T16:48:40Z</time>
      </trkpt>
      <trkpt lat="44.31887" lon="4.77068">
        <ele>262</ele>
        <time>2016-11-09T16:50:40Z</time>
      </trkpt>
      <trkpt lat="44.31898" lon="4.77052">
        <ele>261</ele>
        <time>2016-11-09T16:52:40Z</time>
      </trkpt>
      <trkpt lat="44.319" lon="4.77046">
        <ele>260</ele>
        <time>2016-11-09T16:54:40Z</time>
      </trkpt>
      <trkpt lat="44.31927" lon="4.77008">
        <ele>257</ele>
        <time>2016-11-09T16:56:40Z</time>
      </trkpt>
      <trkpt lat="44.31959" lon="4.76999">
        <ele>258</ele>
        <time>2016-11-09T16:58:40Z</time>
      </trkpt>
      <trkpt lat="44.31961" lon="4.76997">
        <ele>257</ele>
        <time>2016-11-09T17:00:40Z</time>
      </trkpt>
      <trkpt lat="44.3197" lon="4.76994">
        <ele>257</ele>
        <time>2016-11-09T17:02:40Z</time>
      </trkpt>
      <trkpt lat="44.31981" lon="4.7699">
        <ele>257</ele>
        <time>2016-11-09T17:04:40Z</time>
      </trkpt>
      <trkpt lat="44.31994" lon="4.76996">
        <ele>260</ele>
        <time>2016-11-09T17:06:40Z</time>
      </trkpt>
      <trkpt lat="44.32015" lon="4.77001">
        <ele>262</ele>
        <time>2016-11-09T17:08:40Z</time>
      </trkpt>
      <trkpt lat="44.32032" lon="4.76999">
        <ele>262</ele>
        <time>2016-11-09T17:10:40Z</time>
      </trkpt>
      <trkpt lat="44.32053" lon="4.76997">
        <ele>262</ele>
        <time>2016-11-09T17:12:40Z</time>
      </trkpt>
      <trkpt lat="44.32091" lon="4.76991">
        <ele>264</ele>
        <time>2016-11-09T17:14:40Z</time>
      </trkpt>
      <trkpt lat="44.32109" lon="4.76985">
        <ele>265</ele>
        <time>2016-11-09T17:16:40Z</time>
      </trkpt>
      <trkpt lat="44.32124" lon="4.76972">
        <ele>266</ele>
        <time>2016-11-09T17:18:40Z</time>
      </trkpt>
      <trkpt lat="44.32149" lon="4.76955">
        <ele>268</ele>
        <time>2016-11-09T17:20:40Z</time>
      </trkpt>
      <trkpt lat="44.32148" lon="4.76956">
        <ele>268</ele>
        <time>2016-11-09T17:22:40Z</time>
      </trkpt>
      <trkpt lat="44.32148" lon="4.76955">
        <ele>268</ele>
        <time>2016-11-09T17:24:40Z</time>
      </trkpt>
      <trkpt lat="44.32146" lon="4.76952">
        <ele>267</ele>
        <time>2016-11-09T17:26:40Z</time>
      </trkpt>
      <trkpt lat="44.32148" lon="4.76947">
        <ele>267</ele>
        <time>2016-11-09T17:28:40Z</time>
      </trkpt>
      <trkpt lat="44.32149" lon="4.76947">
        <ele>267</ele>
        <time>2016-11-09T17:30:40Z</time>
      </trkpt>
      <trkpt lat="44.3215" lon="4.76949">
        <ele>267</ele>
        <time>2016-11-09T17:32:40Z</time>
      </trkpt>
      <trkpt lat="44.32147" lon="4.76949">
        <ele>267</ele>
        <time>2016-11-09T17:34:40Z</time>
      </trkpt>
      <trkpt lat="44.3215" lon="4.76947">
        <ele>267</ele>
        <time>2016-11-09T17:36:40Z</time>
      </trkpt>
      <trkpt lat="44.3215" lon="4.76954">
        <ele>268</ele>
        <time>2016-11-09T17:38:40Z</time>
      </trkpt>
      <trkpt lat="44.32149" lon="4.76949">
        <ele>267</ele>
        <time>2016-11-09T17:40:40Z</time>
      </trkpt>
      <trkpt lat="44.3215" lon="4.76949">
        <ele>267</ele>
        <time>2016-11-09T17:42:40Z</time>
      </trkpt>
      <trkpt lat="44.32148" lon="4.76946">
        <ele>267</ele>
        <time>2016-11-09T17:44:40Z</time>
      </trkpt>
      <trkpt lat="44.32146" lon="4.76943">
        <ele>266</ele>
        <time>2016-11-09T17:46:40Z</time>
      </trkpt>
      <trkpt lat="44.32145" lon="4.76944">
        <ele>266</ele>
        <time>2016-11-09T17:48:40Z</time>
      </trkpt>
      <trkpt lat="44.3215" lon="4.76952">
        <ele>268</ele>
        <time>2016-11-09T17:50:40Z</time>
      </trkpt>
      <trkpt lat="44.32149" lon="4.76951">
        <ele>267</ele>
        <time>2016-11-09T17:52:40Z</time>
      </trkpt>
      <trkpt lat="44.32148" lon="4.76952">
        <ele>267</ele>
        <time>2016-11-09T17:54:40Z</time>
      </trkpt>
      <trkpt lat="44.32146" lon="4.76953">
        <ele>267</ele>
        <time>2016-11-09T17:56:40Z</time>
      </trkpt>
      <trkpt lat="44.32149" lon="4.76952">
        <ele>267</ele>
        <time>2016-11-09T17:58:40Z</time>
      </trkpt>
      <trkpt lat="44.32149" lon="4.76953">
        <ele>268</ele>
        <time>2016-11-09T18:00:40Z</time>
      </trkpt>
      <trkpt lat="44.32149" lon="4.76951">
        <ele>267</ele>
        <time>2016-11-09T18:02:40Z</time>
      </trkpt>
      <trkpt lat="44.32145" lon="4.76949">
        <ele>266</ele>
        <time>2016-11-09T18:04:40Z</time>
      </trkpt>
      <trkpt lat="44.32146" lon="4.76951">
        <ele>267</ele>
        <time>2016-11-09T18:06:40Z</time>
      </trkpt>
      <trkpt lat="44.32144" lon="4.76947">
        <ele>266</ele>
        <time>2016-11-09T18:08:40Z</time>
      </trkpt>
      <trkpt lat="44.32149" lon="4.76949">
        <ele>267</ele>
        <time>2016-11-09T18:10:40Z</time>
      </trkpt>
      <trkpt lat="44.32146" lon="4.76944">
        <ele>266</ele>
        <time>2016-11-09T18:12:40Z</time>
      </trkpt>
      <trkpt lat="44.32144" lon="4.76944">
        <ele>266</ele>
        <time>2016-11-09T18:14:40Z</time>
      </trkpt>
      <trkpt lat="44.32149" lon="4.76937">
        <ele>266</ele>
        <time>2016-11-09T18:16:40Z</time>
      </trkpt>
      <trkpt lat="44.32153" lon="4.76918">
        <ele>265</ele>
        <time>2016-11-09T18:18:40Z</time>
      </trkpt>
      <trkpt lat="44.32153" lon="4.76905">
        <ele>265</ele>
        <time>2016-11-09T18:20:40Z</time>
      </trkpt>
      <trkpt lat="44.32151" lon="4.76892">
        <ele>264</ele>
        <time>2016-11-09T18:22:40Z</time>
      </trkpt>
      <trkpt lat="44.32146" lon="4.76873">
        <ele>264</ele>
        <time>2016-11-09T18:24:40Z</time>
      </trkpt>
      <trkpt lat="44.32141" lon="4.76851">
        <ele>263</ele>
        <time>2016-11-09T18:26:40Z</time>
      </trkpt>
      <trkpt lat="44.3214" lon="4.76843">
        <ele>263</ele>
        <time>2016-11-09T18:28:40Z</time>
      </trkpt>
      <trkpt lat="44.32135" lon="4.76833">
        <ele>263</ele>
        <time>2016-11-09T18:30:40Z</time>
      </trkpt>
      <trkpt lat="44.3212" lon="4.76806">
        <ele>262</ele>
        <time>2016-11-09T18:32:40Z</time>
      </trkpt>
      <trkpt lat="44.32118" lon="4.768">
        <ele>262</ele>
        <time>2016-11-09T18:34:40Z</time>
      </trkpt>
      <trkpt lat="44.32106" lon="4.76782">
        <ele>261</ele>
        <time>2016-11-09T18:36:40Z</time>
      </trkpt>
      <trkpt lat="44.321" lon="4.76768">
        <ele>262</ele>
        <time>2016-11-09T18:38:40Z</time>
      </trkpt>
      <trkpt lat="44.32091" lon="4.7675">
        <ele>262</ele>
        <time>2016-11-09T18:40:40Z</time>
      </trkpt>
      <trkpt lat="44.32076" lon="4.76726">
        <ele>257</ele>
        <time>2016-11-09T18:42:40Z</time>
      </trkpt>
      <trkpt lat="44.3207" lon="4.7671">
        <ele>253</ele>
        <time>2016-11-09T18:44:40Z</time>
      </trkpt>
      <trkpt lat="44.32073" lon="4.767">
        <ele>253</ele>
        <time>2016-11-09T18:46:40Z</time>
      </trkpt>
      <trkpt lat="44.32078" lon="4.76693">
        <ele>254</ele>
        <time>2016-11-09T18:48:40Z</time>
      </trkpt>
      <trkpt lat="44.32081" lon="4.76685">
        <ele>254</ele>
        <time>2016-11-09T18:50:40Z</time>
      </trkpt>
      <trkpt lat="44.32084" lon="4.76675">
        <ele>254</ele>
        <time>2016-11-09T18:52:40Z</time>
      </trkpt>
      <trkpt lat="44.32087" lon="4.76665">
        <ele>253</ele>
        <time>2016-11-09T18:54:40Z</time>
      </trkpt>
      <trkpt lat="44.32091" lon="4.76657">
        <ele>253</ele>
        <time>2016-11-09T18:56:40Z</time>
      </trkpt>
      <trkpt lat="44.32098" lon="4.76648">
        <ele>252</ele>
        <time>2016-11-09T18:58:40Z</time>
      </trkpt>
      <trkpt lat="44.32108" lon="4.76631">
        <ele>252</ele>
        <time>2016-11-09T19:00:40Z</time>
      </trkpt>
      <trkpt lat="44.32114" lon="4.7662">
        <ele>251</ele>
        <time>2016-11-09T19:02:40Z</time>
      </trkpt>
      <trkpt lat="44.32123" lon="4.76609">
        <ele>251</ele>
        <time>2016-11-09T19:04:40Z</time>
      </trkpt>
      <trkpt lat="44.32125" lon="4.76606">
        <ele>251</ele>
        <time>2016-11-09T19:06:40Z</time>
      </trkpt>
      <trkpt lat="44.32135" lon="4.76594">
        <ele>251</ele>
        <time>2016-11-09T19:08:40Z</time>
      </trkpt>
      <trkpt lat="44.32137" lon="4.76584">
        <ele>249</ele>
        <time>2016-11-09T19:10:40Z</time>
      </trkpt>
      <trkpt lat="44.32134" lon="4.76574">
        <ele>249</ele>
        <time>2016-11-09T19:12:40Z</time>
      </trkpt>
      <trkpt lat="44.32134" lon="4.76571">
        <ele>250</ele>
        <time>2016-11-09T19:14:40Z</time>
      </trkpt>
      <trkpt lat="44.32136" lon="4.76557">
        <ele>251</ele>
        <time>2016-11-09T19:16:40Z</time>
      </trkpt>
      <trkpt lat="44.32129" lon="4.76542">
        <ele>250</ele>
        <time>2016-11-09T19:18:40Z</time>
      </trkpt>
      <trkpt lat="44.32123" lon="4.76533">
        <ele>249</ele>
        <time>2016-11-09T19:20:40Z</time>
      </trkpt>
      <trkpt lat="44.32115" lon="4.76519">
        <ele>248</ele>
        <time>2016-11-09T19:22:40Z</time>
      </trkpt>
      <trkpt lat="44.32108" lon="4.76512">
        <ele>247</ele>
        <time>2016-11-09T19:24:40Z</time>
      </trkpt>
      <trkpt lat="44.321" lon="4.76495">
        <ele>246</ele>
        <time>2016-11-09T19:26:40Z</time>
      </trkpt>
      <trkpt lat="44.32093" lon="4.76486">
        <ele>246</ele>
        <time>2016-11-09T19:28:40Z</time>
      </trkpt>
      <trkpt lat="44.32087" lon="4.76474">
        <ele>247</ele>
        <time>2016-11-09T19:30:40Z</time>
      </trkpt>
      <trkpt lat="44.32082" lon="4.76468">
        <ele>246</ele>
        <time>2016-11-09T19:32:40Z</time>
      </trkpt>
      <trkpt lat="44.32075" lon="4.76456">
        <ele>246</ele>
        <time>2016-11-09T19:34:40Z</time>
      </trkpt>
      <trkpt lat="44.32055" lon="4.7643">
        <ele>244</ele>
        <time>2016-11-09T19:36:40Z</time>
      </trkpt>
      <trkpt lat="44.32043" lon="4.76411">
        <ele>244</ele>
        <time>2016-11-09T19:38:40Z</time>
      </trkpt>
      <trkpt lat="44.32031" lon="4.76395">
        <ele>244</ele>
        <time>2016-11-09T19:40:40Z</time>
      </trkpt>
      <trkpt lat="44.32016" lon="4.76372">
        <ele>246</ele>
        <time>2016-11-09T19:42:40Z</time>
      </trkpt>
      <trkpt lat="44.32003" lon="4.76358">
        <ele>247</ele>
        <time>2016-11-09T19:44:40Z</time>
      </trkpt>
      <trkpt lat="44.31989" lon="4.76349">
        <ele>246</ele>
        <time>2016-11-09T19:46:40Z</time>
      </trkpt>
      <trkpt lat="44.31972" lon="4.7634">
        <ele>243</ele>
        <time>2016-11-09T19:48:40Z</time>
      </trkpt>
      <trkpt lat="44.31962" lon="4.76326">
        <ele>244</ele>
        <time>2016-11-09T19:50:40Z</time>
      </trkpt>
      <trkpt lat="44.3195" lon="4.76311">
        <ele>244</ele>
        <time>2016-11-09T19:52:40Z</time>
      </trkpt>
      <trkpt lat="44.31946" lon="4.76301">
        <ele>245</ele>
        <time>2016-11-09T19:54:40Z</time>
      </trkpt>
      <trkpt lat="44.31927" lon="4.76267">
        <ele>246</ele>
        <time>2016-11-09T19:56:40Z</time>
      </trkpt>
      <trkpt lat="44.31916" lon="4.7626">
        <ele>245</ele>
        <time>2016-11-09T19:58:40Z</time>
      </trkpt>
      <trkpt lat="44.31905" lon="4.76242">
        <ele>245</ele>
        <time>2016-11-09T20:00:40Z</time>
      </trkpt>
      <trkpt lat="44.31886" lon="4.76219">
        <ele>244</ele>
        <time>2016-11-09T20:02:40Z</time>
      </trkpt>
      <trkpt lat="44.31873" lon="4.76208">
        <ele>243</ele>
        <time>2016-11-09T20:04:40Z</time>
      </trkpt>
      <trkpt lat="44.31863" lon="4.76201">
        <ele>242</ele>
        <time>2016-11-09T20:06:40Z</time>
      </trkpt>
      <trkpt lat="44.31856" lon="4.76195">
        <ele>241</ele>
        <time>2016-11-09T20:08:40Z</time>
      </trkpt>
      <trkpt lat="44.3185" lon="4.7619">
        <ele>240</ele>
        <time>2016-11-09T20:10:40Z</time>
      </trkpt>
      <trkpt lat="44.31839" lon="4.76178">
        <ele>239</ele>
        <time>2016-11-09T20:12:40Z</time>
      </trkpt>
      <trkpt lat="44.31822" lon="4.76163">
        <ele>240</ele>
        <time>2016-11-09T20:14:40Z</time>
      </trkpt>
      <trkpt lat="44.3181" lon="4.76157">
        <ele>239</ele>
        <time>2016-11-09T20:16:40Z</time>
      </trkpt>
      <trkpt lat="44.31798" lon="4.76146">
        <ele>239</ele>
        <time>2016-11-09T20:18:40Z</time>
      </trkpt>
      <trkpt lat="44.31798" lon="4.7614">
        <ele>239</ele>
        <time>2016-11-09T20:20:40Z</time>
      </trkpt>
      <trkpt lat="44.31799" lon="4.76118">
        <ele>240</ele>
        <time>2016-11-09T20:22:40Z</time>
      </trkpt>
      <trkpt lat="44.31798" lon="4.76094">
        <ele>241</ele>
        <time>2016-11-09T20:24:40Z</time>
      </trkpt>
      <trkpt lat="44.31798" lon="4.7609">
        <ele>241</ele>
        <time>2016-11-09T20:26:40Z</time>
      </trkpt>
      <trkpt lat="44.31804" lon="4.76058">
        <ele>238</ele>
        <time>2016-11-09T20:28:40Z</time>
      </trkpt>
      <trkpt lat="44.31805" lon="4.76059">
        <ele>238</ele>
        <time>2016-11-09T20:30:40Z</time>
      </trkpt>
      <trkpt lat="44.31804" lon="4.76052">
        <ele>237</ele>
        <time>2016-11-09T20:32:40Z</time>
      </trkpt>
      <trkpt lat="44.31797" lon="4.76051">
        <ele>236</ele>
        <time>2016-11-09T20:34:40Z</time>
      </trkpt>
      <trkpt lat="44.31794" lon="4.76053">
        <ele>236</ele>
        <time>2016-11-09T20:36:40Z</time>
      </trkpt>
      <trkpt lat="44.31792" lon="4.76053">
        <ele>236</ele>
        <time>2016-11-09T20:38:40Z</time>
      </trkpt>
      <trkpt lat="44.3178" lon="4.76054">
        <ele>235</ele>
        <time>2016-11-09T20:40:40Z</time>
      </trkpt>
      <trkpt lat="44.31779" lon="4.76055">
        <ele>235</ele>
        <time>2016-11-09T20:42:40Z</time>
      </trkpt>
      <trkpt lat="44.31777" lon="4.76055">
        <ele>235</ele>
        <time>2016-11-09T20:44:40Z</time>
      </trkpt>
      <trkpt lat="44.31742" lon="4.76079">
        <ele>235</ele>
        <time>2016-11-09T20:46:40Z</time>
      </trkpt>
      <trkpt lat="44.31733" lon="4.76082">
        <ele>235</ele>
        <time>2016-11-09T20:48:40Z</time>
      </trkpt>
      <trkpt lat="44.31722" lon="4.76092">
        <ele>234</ele>
        <time>2016-11-09T20:50:40Z</time>
      </trkpt>
      <trkpt lat="44.31713" lon="4.761">
        <ele>233</ele>
        <time>2016-11-09T20:52:40Z</time>
      </trkpt>
      <trkpt lat="44.31701" lon="4.76105">
        <ele>231</ele>
        <time>2016-11-09T20:54:40Z</time>
      </trkpt>
      <trkpt lat="44.31688" lon="4.76108">
        <ele>230</ele>
        <time>2016-11-09T20:56:40Z</time>
      </trkpt>
      <trkpt lat="44.31678" lon="4.7611">
        <ele>229</ele>
        <time>2016-11-09T20:58:40Z</time>
      </trkpt>
      <trkpt lat="44.31668" lon="4.76108">
        <ele>228</ele>
        <time>2016-11-09T21:00:40Z</time>
      </trkpt>
      <trkpt lat="44.31654" lon="4.76106">
        <ele>227</ele>
        <time>2016-11-09T21:02:40Z</time>
      </trkpt>
      <trkpt lat="44.31639" lon="4.76109">
        <ele>225</ele>
        <time>2016-11-09T21:04:40Z</time>
      </trkpt>
      <trkpt lat="44.3163" lon="4.76096">
        <ele>225</ele>
        <time>2016-11-09T21:06:40Z</time>
      </trkpt>
      <trkpt lat="44.3162" lon="4.76089">
        <ele>225</ele>
        <time>2016-11-09T21:08:40Z</time>
      </trkpt>
      <trkpt lat="44.31614" lon="4.76085">
        <ele>224</ele>
        <time>2016-11-09T21:10:40Z</time>
      </trkpt>
      <trkpt lat="44.31607" lon="4.76081">
        <ele>223</ele>
        <time>2016-11-09T21:12:40Z</time>
      </trkpt>
      <trkpt lat="44.31603" lon="4.76073">
        <ele>221</ele>
        <time>2016-11-09T21:14:40Z</time>
      </trkpt>
      <trkpt lat="44.31608" lon="4.76073">
        <ele>221</ele>
        <time>2016-11-09T21:16:40Z</time>
      </trkpt>
      <trkpt lat="44.31608" lon="4.76071">
        <ele>221</ele>
        <time>2016-11-09T21:18:40Z</time>
      </trkpt>
      <trkpt lat="44.3161" lon="4.76071">
        <ele>221</ele>
        <time>2016-11-09T21:20:40Z</time>
      </trkpt>
      <trkpt lat="44.31611" lon="4.76073">
        <ele>221</ele>
        <time>2016-11-09T21:22:40Z</time>
      </trkpt>
      <trkpt lat="44.31613" lon="4.76075">
        <ele>222</ele>
        <time>2016-11-09T21:24:40Z</time>
      </trkpt>
      <trkpt lat="44.3161" lon="4.76075">
        <ele>222</ele>
        <time>2016-11-09T21:26:40Z</time>
      </trkpt>
      <trkpt lat="44.31609" lon="4.76074">
        <ele>221</ele>
        <time>2016-11-09T21:28:40Z</time>
      </trkpt>
      <trkpt lat="44.31611" lon="4.76075">
        <ele>222</ele>
        <time>2016-11-09T21:30:40Z</time>
      </trkpt>
      <trkpt lat="44.31611" lon="4.76075">
        <ele>222</ele>
        <time>2016-11-09T21:32:40Z</time>
      </trkpt>
      <trkpt lat="44.31614" lon="4.76071">
        <ele>221</ele>
        <time>2016-11-09T21:34:40Z</time>
      </trkpt>
      <trkpt lat="44.31619" lon="4.76066">
        <ele>220</ele>
        <time>2016-11-09T21:36:40Z</time>
      </trkpt>
      <trkpt lat="44.31624" lon="4.76066">
        <ele>220</ele>
        <time>2016-11-09T21:38:40Z</time>
      </trkpt>
      <trkpt lat="44.31629" lon="4.76062">
        <ele>220</ele>
        <time>2016-11-09T21:40:40Z</time>
      </trkpt>
      <trkpt lat="44.31632" lon="4.76057">
        <ele>219</ele>
        <time>2016-11-09T21:42:40Z</time>
      </trkpt>
      <trkpt lat="44.31633" lon="4.76056">
        <ele>219</ele>
        <time>2016-11-09T21:44:40Z</time>
      </trkpt>
      <trkpt lat="44.31635" lon="4.76051">
        <ele>217</ele>
        <time>2016-11-09T21:46:40Z</time>
      </trkpt>
      <trkpt lat="44.31634" lon="4.76046">
        <ele>216</ele>
        <time>2016-11-09T21:48:40Z</time>
      </trkpt>
      <trkpt lat="44.31634" lon="4.7604">
        <ele>215</ele>
        <time>2016-11-09T21:50:40Z</time>
      </trkpt>
      <trkpt lat="44.31636" lon="4.7604">
        <ele>215</ele>
        <time>2016-11-09T21:52:40Z</time>
      </trkpt>
      <trkpt lat="44.3164" lon="4.76032">
        <ele>213</ele>
        <time>2016-11-09T21:54:40Z</time>
      </trkpt>
      <trkpt lat="44.31644" lon="4.76031">
        <ele>213</ele>
        <time>2016-11-09T21:56:40Z</time>
      </trkpt>
      <trkpt lat="44.31646" lon="4.76026">
        <ele>212</ele>
        <time>2016-11-09T21:58:40Z</time>
      </trkpt>
      <trkpt lat="44.3165" lon="4.76022">
        <ele>211</ele>
        <time>2016-11-09T22:00:40Z</time>
      </trkpt>
      <trkpt lat="44.31654" lon="4.76018">
        <ele>211</ele>
        <time>2016-11-09T22:02:40Z</time>
      </trkpt>
      <trkpt lat="44.31656" lon="4.76019">
        <ele>211</ele>
        <time>2016-11-09T22:04:40Z</time>
      </trkpt>
      <trkpt lat="44.3166" lon="4.76017">
        <ele>211</ele>
        <time>2016-11-09T22:06:40Z</time>
      </trkpt>
      <trkpt lat="44.31672" lon="4.76017">
        <ele>212</ele>
        <time>2016-11-09T22:08:40Z</time>
      </trkpt>
      <trkpt lat="44.3169" lon="4.76004">
        <ele>212</ele>
        <time>2016-11-09T22:10:40Z</time>
      </trkpt>
      <trkpt lat="44.31695" lon="4.76004">
        <ele>213</ele>
        <time>2016-11-09T22:12:40Z</time>
      </trkpt>
      <trkpt lat="44.31699" lon="4.75999">
        <ele>212</ele>
        <time>2016-11-09T22:14:40Z</time>
      </trkpt>
      <trkpt lat="44.31707" lon="4.75989">
        <ele>211</ele>
        <time>2016-11-09T22:16:40Z</time>
      </trkpt>
      <trkpt lat="44.31714" lon="4.75979">
        <ele>210</ele>
        <time>2016-11-09T22:18:40Z</time>
      </trkpt>
      <trkpt lat="44.3172" lon="4.75975">
        <ele>211</ele>
        <time>2016-11-09T22:20:40Z</time>
      </trkpt>
      <trkpt lat="44.31725" lon="4.75968">
        <ele>210</ele>
        <time>2016-11-09T22:22:40Z</time>
      </trkpt>
      <trkpt lat="44.31731" lon="4.7596">
        <ele>210</ele>
        <time>2016-11-09T22:24:40Z</time>
      </trkpt>
      <trkpt lat="44.31735" lon="4.75956">
        <ele>210</ele>
        <time>2016-11-09T22:26:40Z</time>
      </trkpt>
      <trkpt lat="44.31734" lon="4.75952">
        <ele>209</ele>
        <time>2016-11-09T22:28:40Z</time>
      </trkpt>
      <trkpt lat="44.31733" lon="4.75952">
        <ele>209</ele>
        <time>2016-11-09T22:30:40Z</time>
      </trkpt>
      <trkpt lat="44.31733" lon="4.75952">
        <ele>209</ele>
        <time>2016-11-09T22:32:40Z</time>
      </trkpt>
      <trkpt lat="44.31732" lon="4.75951">
        <ele>208</ele>
        <time>2016-11-09T22:34:40Z</time>
      </trkpt>
      <trkpt lat="44.31728" lon="4.7596">
        <ele>209</ele>
        <time>2016-11-09T22:36:40Z</time>
      </trkpt>
      <trkpt lat="44.31715" lon="4.75963">
        <ele>207</ele>
        <time>2016-11-09T22:38:40Z</time>
      </trkpt>
      <trkpt lat="44.31705" lon="4.75967">
        <ele>206</ele>
        <time>2016-11-09T22:40:40Z</time>
      </trkpt>
      <trkpt lat="44.31695" lon="4.75972">
        <ele>205</ele>
        <time>2016-11-09T22:42:40Z</time>
      </trkpt>
      <trkpt lat="44.31681" lon="4.75979">
        <ele>204</ele>
        <time>2016-11-09T22:44:40Z</time>
      </trkpt>
      <trkpt lat="44.31667" lon="4.75981">
        <ele>202</ele>
        <time>2016-11-09T22:46:40Z</time>
      </trkpt>
      <trkpt lat="44.31654" lon="4.75982">
        <ele>201</ele>
        <time>2016-11-09T22:48:40Z</time>
      </trkpt>
      <trkpt lat="44.31645" lon="4.75984">
        <ele>201</ele>
        <time>2016-11-09T22:50:40Z</time>
      </trkpt>
      <trkpt lat="44.31632" lon="4.75986">
        <ele>200</ele>
        <time>2016-11-09T22:52:40Z</time>
      </trkpt>
      <trkpt lat="44.31624" lon="4.75985">
        <ele>199</ele>
        <time>2016-11-09T22:54:40Z</time>
      </trkpt>
      <trkpt lat="44.31614" lon="4.75979">
        <ele>197</ele>
        <time>2016-11-09T22:56:40Z</time>
      </trkpt>
      <trkpt lat="44.31604" lon="4.75971">
        <ele>193</ele>
        <time>2016-11-09T22:58:40Z</time>
      </trkpt>
      <trkpt lat="44.31602" lon="4.75971">
        <ele>193</ele>
        <time>2016-11-09T23:00:40Z</time>
      </trkpt>
      <trkpt lat="44.316" lon="4.75968">
        <ele>192</ele>
        <time>2016-11-09T23:02:40Z</time>
      </trkpt>
      <trkpt lat="44.31598" lon="4.75971">
        <ele>193</ele>
        <time>2016-11-09T23:04:40Z</time>
      </trkpt>
      <trkpt lat="44.31599" lon="4.75971">
        <ele>193</ele>
        <time>2016-11-09T23:06:40Z</time>
      </trkpt>
      <trkpt lat="44.31598" lon="4.75971">
        <ele>193</ele>
        <time>2016-11-09T23:08:40Z</time>
      </trkpt>
    </trkseg>
  </trk>
</gpx>